Time,TemperatureF,DewpointF,PressureIn,WindDirection,WindDirectionDegrees,WindSpeedMPH,WindSpeedGustMPH,Humidity,HourlyPrecipIn,Conditions,Clouds,dailyrainin,SoftwareType,DateUTC
2013-11-29 09:05:00,46.0,38.9,30.22,West,272,0.0,0.0,76,0.00,,---,0.00,VWS V14.00,2013-11-29 15:05:00,
2013-11-29 09:06:00,46.4,39.3,30.22,West,272,0.0,0.0,76,0.00,,---,0.00,VWS V14.00,2013-11-29 15:06:00,
2013-11-29 09:07:00,46.8,37.9,30.22,West,272,0.0,0.0,71,0.00,,---,0.00,VWS V14.00,2013-11-29 15:07:00,
2013-11-29 09:08:00,47.0,38.1,30.22,West,272,0.0,0.0,71,0.00,,---,0.00,VWS V14.00,2013-11-29 15:08:00,
2013-11-29 09:09:00,47.3,38.0,30.22,West,272,0.0,0.0,70,0.00,,---,0.00,VWS V14.00,2013-11-29 15:09:00,
2013-11-29 09:10:00,47.6,38.7,30.22,West,272,0.0,0.0,71,0.00,,---,0.00,VWS V14.00,2013-11-29 15:10:00,
2013-11-29 09:11:00,48.0,37.6,30.22,West,272,0.0,0.0,67,0.00,,---,0.00,VWS V14.00,2013-11-29 15:11:00,
2013-11-29 09:12:00,48.6,37.0,30.22,West,272,0.0,0.0,64,0.00,,---,0.00,VWS V14.00,2013-11-29 15:12:00,
2013-11-29 09:13:00,49.2,38.3,30.22,West,272,0.0,0.0,66,0.00,,---,0.00,VWS V14.00,2013-11-29 15:13:00,
2013-11-29 09:14:00,49.8,37.7,30.22,West,272,0.0,0.0,63,0.00,,---,0.00,VWS V14.00,2013-11-29 15:14:00,
2013-11-29 09:15:00,50.1,38.0,30.19,West,272,0.0,0.0,63,0.00,,---,0.00,VWS V14.00,2013-11-29 15:15:00,
2013-11-29 09:16:00,50.5,37.6,30.19,West,272,0.0,0.0,61,0.00,,---,0.00,VWS V14.00,2013-11-29 15:16:00,
2013-11-29 09:17:00,50.8,37.8,30.19,West,272,0.0,0.0,61,0.00,,---,0.00,VWS V14.00,2013-11-29 15:17:00,
2013-11-29 09:18:00,51.4,37.6,30.19,West,272,0.0,0.0,59,0.00,,---,0.00,VWS V14.00,2013-11-29 15:18:00,
2013-11-29 09:19:00,52.2,38.3,30.19,West,272,0.0,0.0,59,0.00,,---,0.00,VWS V14.00,2013-11-29 15:19:00,
2013-11-29 09:20:00,52.5,38.2,30.19,West,272,0.0,0.0,58,0.00,,---,0.00,VWS V14.00,2013-11-29 15:20:00,
2013-11-29 09:21:00,52.9,37.2,30.19,West,272,0.0,0.0,55,0.00,,---,0.00,VWS V14.00,2013-11-29 15:21:00,
2013-11-29 09:22:00,53.1,37.8,30.19,West,272,0.0,0.0,56,0.00,,---,0.00,VWS V14.00,2013-11-29 15:22:00,
2013-11-29 09:23:00,53.5,38.7,30.19,West,272,0.0,0.0,57,0.00,,---,0.00,VWS V14.00,2013-11-29 15:23:00,
2013-11-29 09:24:00,53.8,38.9,30.19,West,272,0.0,0.0,57,0.00,,---,0.00,VWS V14.00,2013-11-29 15:24:00,
2013-11-29 09:25:00,54.1,37.8,30.19,West,272,0.0,0.0,54,0.00,,---,0.00,VWS V14.00,2013-11-29 15:25:00,
2013-11-29 09:26:00,54.4,37.2,30.19,West,272,0.0,0.0,52,0.00,,---,0.00,VWS V14.00,2013-11-29 15:26:00,
2013-11-29 09:27:00,54.5,35.8,30.19,West,272,0.0,0.0,49,0.00,,---,0.00,VWS V14.00,2013-11-29 15:27:00,
2013-11-29 09:28:00,54.8,37.0,30.19,West,274,0.0,0.0,51,0.00,,---,0.00,VWS V14.00,2013-11-29 15:28:00,
2013-11-29 09:29:00,55.0,36.7,30.19,West,274,0.0,0.0,50,0.00,,---,0.00,VWS V14.00,2013-11-29 15:29:00,
2013-11-29 09:30:00,55.1,36.8,30.17,West,274,0.0,0.0,50,0.00,,---,0.00,VWS V14.00,2013-11-29 15:30:00,
2013-11-29 09:31:00,55.1,37.3,30.17,West,274,0.0,0.0,51,0.00,,---,0.00,VWS V14.00,2013-11-29 15:31:00,
2013-11-29 09:32:00,55.3,37.0,30.17,West,274,0.0,0.0,50,0.00,,---,0.00,VWS V14.00,2013-11-29 15:32:00,
2013-11-29 09:33:00,55.3,37.0,30.17,West,274,0.0,0.0,50,0.00,,---,0.00,VWS V14.00,2013-11-29 15:33:00,
2013-11-29 09:34:00,55.3,37.0,30.17,West,274,0.0,0.0,50,0.00,,---,0.00,VWS V14.00,2013-11-29 15:34:00,
2013-11-29 09:35:00,55.1,37.3,30.17,West,274,0.0,0.0,51,0.00,,---,0.00,VWS V14.00,2013-11-29 15:35:00,
2013-11-29 09:36:00,55.0,36.7,30.17,West,274,0.0,0.0,50,0.00,,---,0.00,VWS V14.00,2013-11-29 15:36:00,
2013-11-29 09:37:00,55.0,36.7,30.17,West,274,0.0,0.0,50,0.00,,---,0.00,VWS V14.00,2013-11-29 15:37:00,
2013-11-29 09:38:00,55.0,36.7,30.17,West,274,0.0,0.0,50,0.00,,---,0.00,VWS V14.00,2013-11-29 15:38:00,
2013-11-29 09:39:00,55.1,36.8,30.17,West,274,0.0,0.0,50,0.00,,---,0.00,VWS V14.00,2013-11-29 15:39:00,
2013-11-29 09:40:00,55.3,37.0,30.17,West,274,0.0,0.0,50,0.00,,---,0.00,VWS V14.00,2013-11-29 15:40:00,
2013-11-29 09:41:00,55.6,36.8,30.17,West,274,0.0,0.0,49,0.00,,---,0.00,VWS V14.00,2013-11-29 15:41:00,
2013-11-29 09:42:00,55.7,36.8,30.17,West,274,0.0,0.0,49,0.00,,---,0.00,VWS V14.00,2013-11-29 15:42:00,
2013-11-29 09:43:00,55.9,37.0,30.17,West,271,0.0,0.0,49,0.00,,---,0.00,VWS V14.00,2013-11-29 15:43:00,
2013-11-29 09:44:00,55.9,36.5,30.17,West,272,0.0,0.0,48,0.00,,---,0.00,VWS V14.00,2013-11-29 15:44:00,
2013-11-29 09:45:00,56.2,36.8,30.16,West,272,0.0,0.0,48,0.00,,---,0.00,VWS V14.00,2013-11-29 15:45:00,
2013-11-29 09:46:00,56.5,37.1,30.16,West,272,0.0,0.0,48,0.00,,---,0.00,VWS V14.00,2013-11-29 15:46:00,
2013-11-29 09:47:00,56.7,36.7,30.16,West,272,0.0,0.0,47,0.00,,---,0.00,VWS V14.00,2013-11-29 15:47:00,
2013-11-29 09:48:00,56.7,35.6,30.16,West,277,0.0,0.0,45,0.00,,---,0.00,VWS V14.00,2013-11-29 15:48:00,
2013-11-29 09:49:00,56.9,35.8,30.16,West,277,0.0,0.0,45,0.00,,---,0.00,VWS V14.00,2013-11-29 15:49:00,
2013-11-29 09:50:00,57.0,36.4,30.16,West,277,0.0,0.0,46,0.00,,---,0.00,VWS V14.00,2013-11-29 15:50:00,
2013-11-29 09:51:00,57.5,36.9,30.16,West,277,0.0,0.0,46,0.00,,---,0.00,VWS V14.00,2013-11-29 15:51:00,
2013-11-29 09:52:00,57.6,35.9,30.16,West,277,0.0,0.0,44,0.00,,---,0.00,VWS V14.00,2013-11-29 15:52:00,
2013-11-29 09:53:00,57.8,36.0,30.16,West,277,0.0,0.0,44,0.00,,---,0.00,VWS V14.00,2013-11-29 15:53:00,
2013-11-29 09:54:00,58.0,36.2,30.16,West,277,0.0,0.0,44,0.00,,---,0.00,VWS V14.00,2013-11-29 15:54:00,
2013-11-29 09:55:00,58.1,36.3,30.16,West,277,0.0,0.0,44,0.00,,---,0.00,VWS V14.00,2013-11-29 15:55:00,
2013-11-29 09:56:00,58.3,35.9,30.16,West,277,0.0,0.0,43,0.00,,---,0.00,VWS V14.00,2013-11-29 15:56:00,
2013-11-29 09:57:00,58.4,36.6,30.16,West,277,0.0,0.0,44,0.00,,---,0.00,VWS V14.00,2013-11-29 15:57:00,
2013-11-29 09:58:00,58.4,36.0,30.16,West,277,0.0,0.0,43,0.00,,---,0.00,VWS V14.00,2013-11-29 15:58:00,
2013-11-29 09:59:00,58.6,36.2,30.16,West,277,0.0,0.0,43,0.00,,---,0.00,VWS V14.00,2013-11-29 15:59:00,
2013-11-29 10:00:00,58.9,34.6,30.15,West,277,0.0,0.0,40,0.00,,---,0.00,VWS V14.00,2013-11-29 16:00:00,
2013-11-29 10:01:00,59.5,34.5,30.15,SSW,193,0.0,0.0,39,0.00,,---,0.00,VWS V14.00,2013-11-29 16:01:00,
2013-11-29 10:02:00,59.8,34.8,30.15,SSE,167,0.0,0.0,39,0.00,,---,0.00,VWS V14.00,2013-11-29 16:02:00,
2013-11-29 10:03:00,60.2,35.8,30.15,SSE,167,0.0,0.0,40,0.00,,---,0.00,VWS V14.00,2013-11-29 16:03:00,
2013-11-29 10:04:00,60.4,36.6,30.15,SSE,157,0.0,0.0,41,0.00,,---,0.00,VWS V14.00,2013-11-29 16:04:00,
2013-11-29 10:05:00,60.5,36.7,30.15,SSE,150,0.0,0.0,41,0.00,,---,0.00,VWS V14.00,2013-11-29 16:05:00,
2013-11-29 10:06:00,60.9,36.4,30.15,SE,138,0.0,0.0,40,0.00,,---,0.00,VWS V14.00,2013-11-29 16:06:00,
2013-11-29 10:07:00,61.0,37.2,30.15,SE,138,0.0,0.0,41,0.00,,---,0.00,VWS V14.00,2013-11-29 16:07:00,
2013-11-29 10:08:00,61.3,35.5,30.15,SE,138,0.0,0.0,38,0.00,,---,0.00,VWS V14.00,2013-11-29 16:08:00,
2013-11-29 10:09:00,61.5,35.0,30.15,ESE,102,0.0,3.0,37,0.00,,---,0.00,VWS V14.00,2013-11-29 16:09:00,
2013-11-29 10:10:00,61.8,36.0,30.15,ESE,102,0.0,3.0,38,0.00,,---,0.00,VWS V14.00,2013-11-29 16:10:00,
2013-11-29 10:11:00,62.0,36.1,30.15,ESE,102,0.0,3.0,38,0.00,,---,0.00,VWS V14.00,2013-11-29 16:11:00,
2013-11-29 10:12:00,62.1,36.2,30.15,ESE,102,0.0,3.0,38,0.00,,---,0.00,VWS V14.00,2013-11-29 16:12:00,
2013-11-29 10:13:00,62.4,36.5,30.15,South,172,2.0,3.0,38,0.00,,---,0.00,VWS V14.00,2013-11-29 16:13:00,
2013-11-29 10:14:00,62.7,34.0,30.15,South,172,0.0,3.0,34,0.00,,---,0.00,VWS V14.00,2013-11-29 16:14:00,
2013-11-29 10:15:00,63.1,34.3,30.14,South,172,0.0,3.0,34,0.00,,---,0.00,VWS V14.00,2013-11-29 16:15:00,
2013-11-29 10:16:00,63.5,33.9,30.14,SSE,162,0.0,3.0,33,0.00,,---,0.00,VWS V14.00,2013-11-29 16:16:00,
2013-11-29 10:17:00,63.7,32.5,30.14,South,186,0.0,3.0,31,0.00,,---,0.00,VWS V14.00,2013-11-29 16:17:00,
2013-11-29 10:18:00,63.9,32.7,30.14,SW,226,0.0,3.0,31,0.00,,---,0.00,VWS V14.00,2013-11-29 16:18:00,
2013-11-29 10:19:00,64.0,32.8,30.14,SW,226,0.0,3.0,31,0.00,,---,0.00,VWS V14.00,2013-11-29 16:19:00,
2013-11-29 10:20:00,64.3,33.8,30.14,SW,226,0.0,3.0,32,0.00,,---,0.00,VWS V14.00,2013-11-29 16:20:00,
2013-11-29 10:21:00,64.3,33.0,30.14,SW,226,1.0,3.0,31,0.00,,---,0.00,VWS V14.00,2013-11-29 16:21:00,
2013-11-29 10:22:00,64.8,33.5,30.14,SW,226,0.0,3.0,31,0.00,,---,0.00,VWS V14.00,2013-11-29 16:22:00,
2013-11-29 10:23:00,65.0,33.7,30.14,SW,223,0.0,3.0,31,0.00,,---,0.00,VWS V14.00,2013-11-29 16:23:00,
2013-11-29 10:24:00,65.3,33.9,30.14,SW,215,0.0,3.0,31,0.00,,---,0.00,VWS V14.00,2013-11-29 16:24:00,
2013-11-29 10:25:00,65.5,34.1,30.14,SW,215,3.0,3.0,31,0.00,,---,0.00,VWS V14.00,2013-11-29 16:25:00,
2013-11-29 10:26:00,65.6,34.2,30.14,SW,215,0.0,3.0,31,0.00,,---,0.00,VWS V14.00,2013-11-29 16:26:00,
2013-11-29 10:27:00,65.5,32.4,30.14,SW,215,6.0,6.0,29,0.00,,---,0.00,VWS V14.00,2013-11-29 16:27:00,
2013-11-29 10:28:00,65.3,32.3,30.14,SW,227,0.0,11.0,29,0.00,,---,0.00,VWS V14.00,2013-11-29 16:28:00,
2013-11-29 10:29:00,65.5,31.6,30.14,SSW,203,2.0,11.0,28,0.00,,---,0.00,VWS V14.00,2013-11-29 16:29:00,
2013-11-29 10:30:00,65.5,33.3,30.12,SSW,208,0.0,11.0,30,0.00,,---,0.00,VWS V14.00,2013-11-29 16:30:00,
2013-11-29 10:31:00,65.5,33.3,30.12,SSW,208,0.0,1.0,30,0.00,,---,0.00,VWS V14.00,2013-11-29 16:31:00,
2013-11-29 10:32:00,65.6,32.5,30.12,SSW,209,0.0,1.0,29,0.00,,---,0.00,VWS V14.00,2013-11-29 16:32:00,
2013-11-29 10:33:00,65.8,33.5,30.12,SSW,208,1.0,1.0,30,0.00,,---,0.00,VWS V14.00,2013-11-29 16:33:00,
2013-11-29 10:34:00,66.0,32.9,30.12,SW,215,2.0,2.0,29,0.00,,---,0.00,VWS V14.00,2013-11-29 16:34:00,
2013-11-29 10:35:00,66.0,32.9,30.12,SW,227,2.0,3.0,29,0.00,,---,0.00,VWS V14.00,2013-11-29 16:35:00,
2013-11-29 10:36:00,66.1,31.2,30.12,South,178,3.0,5.0,27,0.00,,---,0.00,VWS V14.00,2013-11-29 16:36:00,
2013-11-29 10:37:00,66.4,32.3,30.12,SSW,203,2.0,6.0,28,0.00,,---,0.00,VWS V14.00,2013-11-29 16:37:00,
2013-11-29 10:38:00,66.1,32.1,30.12,SSW,200,2.0,6.0,28,0.00,,---,0.00,VWS V14.00,2013-11-29 16:38:00,
2013-11-29 10:39:00,66.3,33.1,30.12,SSW,199,0.0,6.0,29,0.00,,---,0.00,VWS V14.00,2013-11-29 16:39:00,
2013-11-29 10:40:00,66.3,33.1,30.12,SSW,210,0.0,6.0,29,0.00,,---,0.00,VWS V14.00,2013-11-29 16:40:00,
2013-11-29 10:41:00,66.4,32.3,30.12,SSW,209,4.0,7.0,28,0.00,,---,0.00,VWS V14.00,2013-11-29 16:41:00,
2013-11-29 10:42:00,66.3,33.1,30.12,SSW,210,0.0,7.0,29,0.00,,---,0.00,VWS V14.00,2013-11-29 16:42:00,
2013-11-29 10:43:00,66.4,33.2,30.12,SSW,210,0.0,7.0,29,0.00,,---,0.00,VWS V14.00,2013-11-29 16:43:00,
2013-11-29 10:44:00,66.4,33.2,30.12,SSW,206,0.0,7.0,29,0.00,,---,0.00,VWS V14.00,2013-11-29 16:44:00,
2013-11-29 10:45:00,66.4,33.2,30.11,SSW,205,1.0,7.0,29,0.00,,---,0.00,VWS V14.00,2013-11-29 16:45:00,
2013-11-29 10:46:00,66.4,33.2,30.11,South,191,2.0,7.0,29,0.00,,---,0.00,VWS V14.00,2013-11-29 16:46:00,
2013-11-29 10:47:00,66.3,33.1,30.11,SSW,203,2.0,7.0,29,0.00,,---,0.00,VWS V14.00,2013-11-29 16:47:00,
2013-11-29 10:48:00,66.3,33.1,30.11,SSW,199,0.0,7.0,29,0.00,,---,0.00,VWS V14.00,2013-11-29 16:48:00,
2013-11-29 10:49:00,66.1,33.0,30.11,SSW,200,0.0,7.0,29,0.00,,---,0.00,VWS V14.00,2013-11-29 16:49:00,
2013-11-29 10:50:00,66.3,33.1,30.11,SSW,200,0.0,7.0,29,0.00,,---,0.00,VWS V14.00,2013-11-29 16:50:00,
2013-11-29 10:51:00,66.1,33.0,30.11,SSW,199,0.0,7.0,29,0.00,,---,0.00,VWS V14.00,2013-11-29 16:51:00,
2013-11-29 10:52:00,66.1,32.1,30.11,South,176,4.0,7.0,28,0.00,,---,0.00,VWS V14.00,2013-11-29 16:52:00,
2013-11-29 10:53:00,66.0,32.9,30.11,South,178,0.0,7.0,29,0.00,,---,0.00,VWS V14.00,2013-11-29 16:53:00,
2013-11-29 10:54:00,66.0,32.9,30.11,South,176,0.0,7.0,29,0.00,,---,0.00,VWS V14.00,2013-11-29 16:54:00,
2013-11-29 10:55:00,66.0,31.1,30.11,SSW,193,8.0,8.0,27,0.00,,---,0.00,VWS V14.00,2013-11-29 16:55:00,
2013-11-29 10:56:00,65.8,35.2,30.11,ESE,112,1.0,8.0,32,0.00,,---,0.00,VWS V14.00,2013-11-29 16:56:00,
2013-11-29 10:57:00,65.6,35.0,30.11,ESE,112,0.0,8.0,32,0.00,,---,0.00,VWS V14.00,2013-11-29 16:57:00,
2013-11-29 10:58:00,65.5,34.9,30.11,ESE,113,0.0,8.0,32,0.00,,---,0.00,VWS V14.00,2013-11-29 16:58:00,
2013-11-29 10:59:00,65.3,36.2,30.11,ESE,113,0.0,8.0,34,0.00,,---,0.00,VWS V14.00,2013-11-29 16:59:00,
2013-11-29 11:00:00,65.2,36.9,30.12,ESE,106,0.0,8.0,35,0.00,,---,0.00,VWS V14.00,2013-11-29 17:00:00,
2013-11-29 11:01:00,64.8,36.5,30.12,East,96,1.0,4.0,35,0.00,,---,0.00,VWS V14.00,2013-11-29 17:01:00,
2013-11-29 11:02:00,64.5,36.3,30.12,East,100,1.0,5.0,35,0.00,,---,0.00,VWS V14.00,2013-11-29 17:02:00,
2013-11-29 11:03:00,64.5,37.0,30.12,East,100,0.0,5.0,36,0.00,,---,0.00,VWS V14.00,2013-11-29 17:03:00,
2013-11-29 11:04:00,64.3,36.8,30.12,East,100,0.0,5.0,36,0.00,,---,0.00,VWS V14.00,2013-11-29 17:04:00,
2013-11-29 11:05:00,64.2,36.0,30.12,East,100,0.0,5.0,35,0.00,,---,0.00,VWS V14.00,2013-11-29 17:05:00,
2013-11-29 11:06:00,64.0,35.8,30.12,East,97,2.0,5.0,35,0.00,,---,0.00,VWS V14.00,2013-11-29 17:06:00,
2013-11-29 11:07:00,64.0,33.6,30.12,East,97,0.0,5.0,32,0.00,,---,0.00,VWS V14.00,2013-11-29 17:07:00,
2013-11-29 11:08:00,64.0,35.8,30.12,East,97,0.0,5.0,35,0.00,,---,0.00,VWS V14.00,2013-11-29 17:08:00,
2013-11-29 11:09:00,64.0,35.8,30.12,East,97,1.0,5.0,35,0.00,,---,0.00,VWS V14.00,2013-11-29 17:09:00,
2013-11-29 11:10:00,64.0,34.3,30.12,East,97,0.0,5.0,33,0.00,,---,0.00,VWS V14.00,2013-11-29 17:10:00,
2013-11-29 11:11:00,64.0,35.8,30.12,East,97,0.0,5.0,35,0.00,,---,0.00,VWS V14.00,2013-11-29 17:11:00,
2013-11-29 11:12:00,64.0,35.1,30.12,East,97,0.0,5.0,34,0.00,,---,0.00,VWS V14.00,2013-11-29 17:12:00,
2013-11-29 11:13:00,64.2,35.3,30.12,East,97,0.0,5.0,34,0.00,,---,0.00,VWS V14.00,2013-11-29 17:13:00,
2013-11-29 11:14:00,64.3,34.6,30.12,East,97,0.0,5.0,33,0.00,,---,0.00,VWS V14.00,2013-11-29 17:14:00,
2013-11-29 11:15:00,64.5,34.0,30.13,East,97,0.0,5.0,32,0.00,,---,0.00,VWS V14.00,2013-11-29 17:15:00,
2013-11-29 11:16:00,64.7,34.2,30.13,East,97,0.0,5.0,32,0.00,,---,0.00,VWS V14.00,2013-11-29 17:16:00,
2013-11-29 11:17:00,64.8,35.0,30.13,East,97,0.0,5.0,33,0.00,,---,0.00,VWS V14.00,2013-11-29 17:17:00,
2013-11-29 11:18:00,65.0,35.2,30.13,East,97,0.0,5.0,33,0.00,,---,0.00,VWS V14.00,2013-11-29 17:18:00,
2013-11-29 11:19:00,65.0,35.2,30.13,NNE,28,2.0,5.0,33,0.00,,---,0.00,VWS V14.00,2013-11-29 17:19:00,
2013-11-29 11:20:00,65.3,35.5,30.13,NNE,28,0.0,5.0,33,0.00,,---,0.00,VWS V14.00,2013-11-29 17:20:00,
2013-11-29 11:21:00,65.5,35.7,30.13,NNE,28,0.0,5.0,33,0.00,,---,0.00,VWS V14.00,2013-11-29 17:21:00,
2013-11-29 11:22:00,65.8,36.7,30.13,NNE,28,0.0,5.0,34,0.00,,---,0.00,VWS V14.00,2013-11-29 17:22:00,
2013-11-29 11:23:00,66.0,36.8,30.13,NNE,28,0.0,5.0,34,0.00,,---,0.00,VWS V14.00,2013-11-29 17:23:00,
2013-11-29 11:24:00,65.8,35.9,30.13,NE,45,5.0,5.0,33,0.00,,---,0.00,VWS V14.00,2013-11-29 17:24:00,
2013-11-29 11:25:00,65.5,35.7,30.13,NE,45,2.0,5.0,33,0.00,,---,0.00,VWS V14.00,2013-11-29 17:25:00,
2013-11-29 11:26:00,65.2,35.4,30.13,NE,45,0.0,5.0,33,0.00,,---,0.00,VWS V14.00,2013-11-29 17:26:00,
2013-11-29 11:27:00,65.0,36.0,30.13,NE,45,0.0,5.0,34,0.00,,---,0.00,VWS V14.00,2013-11-29 17:27:00,
2013-11-29 11:28:00,64.8,35.8,30.13,NE,45,1.0,5.0,34,0.00,,---,0.00,VWS V14.00,2013-11-29 17:28:00,
2013-11-29 11:29:00,64.7,35.7,30.13,NE,45,0.0,5.0,34,0.00,,---,0.00,VWS V14.00,2013-11-29 17:29:00,
2013-11-29 11:30:00,64.8,35.8,30.11,NE,47,0.0,5.0,34,0.00,,---,0.00,VWS V14.00,2013-11-29 17:30:00,
2013-11-29 11:31:00,64.8,35.8,30.11,NNE,27,0.0,2.0,34,0.00,,---,0.00,VWS V14.00,2013-11-29 17:31:00,
2013-11-29 11:32:00,65.0,36.7,30.11,NE,40,0.0,3.0,35,0.00,,---,0.00,VWS V14.00,2013-11-29 17:32:00,
2013-11-29 11:33:00,65.2,36.9,30.11,NE,40,0.0,3.0,35,0.00,,---,0.00,VWS V14.00,2013-11-29 17:33:00,
2013-11-29 11:34:00,65.3,37.0,30.11,NE,40,0.0,3.0,35,0.00,,---,0.00,VWS V14.00,2013-11-29 17:34:00,
2013-11-29 11:35:00,65.3,35.5,30.11,NE,40,0.0,3.0,33,0.00,,---,0.00,VWS V14.00,2013-11-29 17:35:00,
2013-11-29 11:36:00,65.3,35.5,30.11,NE,40,0.0,3.0,33,0.00,,---,0.00,VWS V14.00,2013-11-29 17:36:00,
2013-11-29 11:37:00,65.6,35.8,30.11,NE,40,0.0,3.0,33,0.00,,---,0.00,VWS V14.00,2013-11-29 17:37:00,
2013-11-29 11:38:00,65.8,35.2,30.11,NE,40,0.0,3.0,32,0.00,,---,0.00,VWS V14.00,2013-11-29 17:38:00,
2013-11-29 11:39:00,65.8,35.2,30.11,NE,51,0.0,3.0,32,0.00,,---,0.00,VWS V14.00,2013-11-29 17:39:00,
2013-11-29 11:40:00,65.6,35.0,30.11,East,95,1.0,7.0,32,0.00,,---,0.00,VWS V14.00,2013-11-29 17:40:00,
2013-11-29 11:41:00,66.0,35.3,30.11,East,95,3.0,7.0,32,0.00,,---,0.00,VWS V14.00,2013-11-29 17:41:00,
2013-11-29 11:42:00,66.0,35.3,30.11,ESE,102,0.0,7.0,32,0.00,,---,0.00,VWS V14.00,2013-11-29 17:42:00,
2013-11-29 11:43:00,66.1,33.8,30.11,ESE,102,0.0,7.0,30,0.00,,---,0.00,VWS V14.00,2013-11-29 17:43:00,
2013-11-29 11:44:00,66.4,34.9,30.11,ESE,114,4.0,7.0,31,0.00,,---,0.00,VWS V14.00,2013-11-29 17:44:00,
2013-11-29 11:45:00,66.4,34.9,30.11,East,100,2.0,7.0,31,0.00,,---,0.00,VWS V14.00,2013-11-29 17:45:00,
2013-11-29 11:46:00,66.6,35.8,30.11,East,83,3.0,7.0,32,0.00,,---,0.00,VWS V14.00,2013-11-29 17:46:00,
2013-11-29 11:47:00,66.3,34.8,30.11,East,85,0.0,7.0,31,0.00,,---,0.00,VWS V14.00,2013-11-29 17:47:00,
2013-11-29 11:48:00,66.6,35.8,30.11,East,86,0.0,7.0,32,0.00,,---,0.00,VWS V14.00,2013-11-29 17:48:00,
2013-11-29 11:49:00,66.6,35.8,30.11,East,88,1.0,7.0,32,0.00,,---,0.00,VWS V14.00,2013-11-29 17:49:00,
2013-11-29 11:50:00,66.9,36.1,30.11,East,93,5.0,7.0,32,0.00,,---,0.00,VWS V14.00,2013-11-29 17:50:00,
2013-11-29 11:51:00,66.6,35.8,30.11,East,90,3.0,7.0,32,0.00,,---,0.00,VWS V14.00,2013-11-29 17:51:00,
2013-11-29 11:52:00,66.9,36.1,30.11,East,93,0.0,7.0,32,0.00,,---,0.00,VWS V14.00,2013-11-29 17:52:00,
2013-11-29 11:53:00,67.3,35.7,30.11,East,92,2.0,7.0,31,0.00,,---,0.00,VWS V14.00,2013-11-29 17:53:00,
2013-11-29 11:54:00,67.6,35.9,30.11,East,90,0.0,7.0,31,0.00,,---,0.00,VWS V14.00,2013-11-29 17:54:00,
2013-11-29 11:55:00,67.6,35.9,30.11,East,86,2.0,7.0,31,0.00,,---,0.00,VWS V14.00,2013-11-29 17:55:00,
2013-11-29 11:56:00,67.8,36.1,30.11,East,85,0.0,7.0,31,0.00,,---,0.00,VWS V14.00,2013-11-29 17:56:00,
2013-11-29 11:57:00,68.3,36.5,30.11,East,85,0.0,7.0,31,0.00,,---,0.00,VWS V14.00,2013-11-29 17:57:00,
2013-11-29 11:58:00,68.3,36.5,30.11,East,88,3.0,7.0,31,0.00,,---,0.00,VWS V14.00,2013-11-29 17:58:00,
2013-11-29 11:59:00,68.1,35.5,30.11,East,90,2.0,7.0,30,0.00,,---,0.00,VWS V14.00,2013-11-29 17:59:00,
2013-11-29 12:00:00,68.3,34.8,30.10,ENE,78,0.0,7.0,29,0.00,,---,0.00,VWS V14.00,2013-11-29 18:00:00,
2013-11-29 12:01:00,68.6,35.1,30.10,ENE,76,0.0,0.0,29,0.00,,---,0.00,VWS V14.00,2013-11-29 18:01:00,
2013-11-29 12:02:00,68.8,33.5,30.10,East,93,5.0,7.0,27,0.00,,---,0.00,VWS V14.00,2013-11-29 18:02:00,
2013-11-29 12:03:00,68.9,35.4,30.10,ESE,102,3.0,7.0,29,0.00,,---,0.00,VWS V14.00,2013-11-29 18:03:00,
2013-11-29 12:04:00,69.1,34.7,30.10,East,95,1.0,7.0,28,0.00,,---,0.00,VWS V14.00,2013-11-29 18:04:00,
2013-11-29 12:05:00,69.3,34.8,30.10,ESE,106,0.0,7.0,28,0.00,,---,0.00,VWS V14.00,2013-11-29 18:05:00,
2013-11-29 12:06:00,69.3,34.8,30.10,East,99,4.0,8.0,28,0.00,,---,0.00,VWS V14.00,2013-11-29 18:06:00,
2013-11-29 12:07:00,69.3,34.8,30.10,East,100,2.0,8.0,28,0.00,,---,0.00,VWS V14.00,2013-11-29 18:07:00,
2013-11-29 12:08:00,69.8,35.3,30.10,East,99,4.0,8.0,28,0.00,,---,0.00,VWS V14.00,2013-11-29 18:08:00,
2013-11-29 12:09:00,69.3,35.7,30.10,East,99,0.0,8.0,29,0.00,,---,0.00,VWS V14.00,2013-11-29 18:09:00,
2013-11-29 12:10:00,69.3,34.8,30.10,ESE,121,3.0,11.0,28,0.00,,---,0.00,VWS V14.00,2013-11-29 18:10:00,
2013-11-29 12:11:00,69.4,34.9,30.10,SE,141,6.0,11.0,28,0.00,,---,0.00,VWS V14.00,2013-11-29 18:11:00,
2013-11-29 12:12:00,69.4,34.0,30.10,SSE,151,0.0,11.0,27,0.00,,---,0.00,VWS V14.00,2013-11-29 18:12:00,
2013-11-29 12:13:00,69.6,34.2,30.10,SSE,148,0.0,11.0,27,0.00,,---,0.00,VWS V14.00,2013-11-29 18:13:00,
2013-11-29 12:14:00,69.6,34.2,30.10,SSE,160,3.0,11.0,27,0.00,,---,0.00,VWS V14.00,2013-11-29 18:14:00,
2013-11-29 12:15:00,69.9,34.4,30.10,SE,144,0.0,11.0,27,0.00,,---,0.00,VWS V14.00,2013-11-29 18:15:00,
2013-11-29 12:16:00,69.8,34.3,30.10,SSE,150,3.0,11.0,27,0.00,,---,0.00,VWS V14.00,2013-11-29 18:16:00,
2013-11-29 12:17:00,69.8,34.3,30.10,SE,138,3.0,11.0,27,0.00,,---,0.00,VWS V14.00,2013-11-29 18:17:00,
2013-11-29 12:18:00,69.9,34.4,30.10,SE,140,0.0,11.0,27,0.00,,---,0.00,VWS V14.00,2013-11-29 18:18:00,
2013-11-29 12:19:00,70.1,35.5,30.10,SSE,148,4.0,11.0,28,0.00,,---,0.00,VWS V14.00,2013-11-29 18:19:00,
2013-11-29 12:20:00,70.1,34.6,30.10,SSE,147,2.0,11.0,27,0.00,,---,0.00,VWS V14.00,2013-11-29 18:20:00,
2013-11-29 12:21:00,70.1,34.6,30.10,SE,145,7.0,11.0,27,0.00,,---,0.00,VWS V14.00,2013-11-29 18:21:00,
2013-11-29 12:22:00,69.4,34.9,30.10,South,178,3.0,11.0,28,0.00,,---,0.00,VWS V14.00,2013-11-29 18:22:00,
2013-11-29 12:23:00,69.6,34.2,30.10,SSE,151,0.0,11.0,27,0.00,,---,0.00,VWS V14.00,2013-11-29 18:23:00,
2013-11-29 12:24:00,69.8,34.3,30.10,SSE,155,0.0,11.0,27,0.00,,---,0.00,VWS V14.00,2013-11-29 18:24:00,
2013-11-29 12:25:00,69.9,34.4,30.10,SE,145,1.0,11.0,27,0.00,,---,0.00,VWS V14.00,2013-11-29 18:25:00,
2013-11-29 12:26:00,69.8,34.3,30.10,SE,143,0.0,11.0,27,0.00,,---,0.00,VWS V14.00,2013-11-29 18:26:00,
2013-11-29 12:27:00,69.9,35.3,30.10,SE,143,0.0,11.0,28,0.00,,---,0.00,VWS V14.00,2013-11-29 18:27:00,
2013-11-29 12:28:00,69.9,35.3,30.10,SE,137,0.0,11.0,28,0.00,,---,0.00,VWS V14.00,2013-11-29 18:28:00,
2013-11-29 12:29:00,70.1,35.5,30.10,SE,137,1.0,11.0,28,0.00,,---,0.00,VWS V14.00,2013-11-29 18:29:00,
2013-11-29 12:30:00,70.1,35.5,30.10,ESE,112,3.0,11.0,28,0.00,,---,0.00,VWS V14.00,2013-11-29 18:30:00,
2013-11-29 12:31:00,70.1,34.6,30.10,SE,141,9.0,10.0,27,0.00,,---,0.00,VWS V14.00,2013-11-29 18:31:00,
2013-11-29 12:32:00,69.8,33.4,30.10,South,179,2.0,10.0,26,0.00,,---,0.00,VWS V14.00,2013-11-29 18:32:00,
2013-11-29 12:33:00,69.8,35.3,30.10,South,178,0.0,10.0,28,0.00,,---,0.00,VWS V14.00,2013-11-29 18:33:00,
2013-11-29 12:34:00,69.8,35.3,30.10,East,80,0.0,10.0,28,0.00,,---,0.00,VWS V14.00,2013-11-29 18:34:00,
2013-11-29 12:35:00,69.8,35.3,30.10,East,82,0.0,10.0,28,0.00,,---,0.00,VWS V14.00,2013-11-29 18:35:00,
2013-11-29 12:36:00,69.8,33.4,30.10,East,82,0.0,10.0,26,0.00,,---,0.00,VWS V14.00,2013-11-29 18:36:00,
2013-11-29 12:37:00,69.9,33.5,30.10,East,82,0.0,10.0,26,0.00,,---,0.00,VWS V14.00,2013-11-29 18:37:00,
2013-11-29 12:38:00,69.9,34.4,30.10,East,82,0.0,10.0,27,0.00,,---,0.00,VWS V14.00,2013-11-29 18:38:00,
2013-11-29 12:39:00,70.1,33.7,30.10,East,82,0.0,10.0,26,0.00,,---,0.00,VWS V14.00,2013-11-29 18:39:00,
2013-11-29 12:40:00,69.9,34.4,30.10,NW,316,0.0,10.0,27,0.00,,---,0.00,VWS V14.00,2013-11-29 18:40:00,
2013-11-29 12:41:00,69.8,34.3,30.10,NW,313,0.0,10.0,27,0.00,,---,0.00,VWS V14.00,2013-11-29 18:41:00,
2013-11-29 12:42:00,69.9,34.4,30.10,NW,313,0.0,10.0,27,0.00,,---,0.00,VWS V14.00,2013-11-29 18:42:00,
2013-11-29 12:43:00,69.8,34.3,30.10,NW,311,0.0,10.0,27,0.00,,---,0.00,VWS V14.00,2013-11-29 18:43:00,
2013-11-29 12:44:00,69.8,34.3,30.10,SSW,192,2.0,10.0,27,0.00,,---,0.00,VWS V14.00,2013-11-29 18:44:00,
2013-11-29 12:45:00,69.4,34.0,30.10,SSW,202,5.0,10.0,27,0.00,,---,0.00,VWS V14.00,2013-11-29 18:45:00,
2013-11-29 12:46:00,69.4,34.9,30.10,SW,222,1.0,10.0,28,0.00,,---,0.00,VWS V14.00,2013-11-29 18:46:00,
2013-11-29 12:47:00,69.6,35.1,30.10,SW,222,2.0,10.0,28,0.00,,---,0.00,VWS V14.00,2013-11-29 18:47:00,
2013-11-29 12:48:00,69.6,34.2,30.10,SSW,198,3.0,10.0,27,0.00,,---,0.00,VWS V14.00,2013-11-29 18:48:00,
2013-11-29 12:49:00,69.8,34.3,30.10,SSW,200,0.0,10.0,27,0.00,,---,0.00,VWS V14.00,2013-11-29 18:49:00,
2013-11-29 12:50:00,69.4,34.0,30.10,SSW,195,9.0,11.0,27,0.00,,---,0.00,VWS V14.00,2013-11-29 18:50:00,
2013-11-29 12:51:00,69.4,34.0,30.10,SSW,203,9.0,11.0,27,0.00,,---,0.00,VWS V14.00,2013-11-29 18:51:00,
2013-11-29 12:52:00,69.6,34.2,30.10,SSW,209,5.0,14.0,27,0.00,,---,0.00,VWS V14.00,2013-11-29 18:52:00,
2013-11-29 12:53:00,69.3,33.9,30.10,SW,219,1.0,14.0,27,0.00,,---,0.00,VWS V14.00,2013-11-29 18:53:00,
2013-11-29 12:54:00,69.3,33.9,30.10,South,176,1.0,14.0,27,0.00,,---,0.00,VWS V14.00,2013-11-29 18:54:00,
2013-11-29 12:55:00,69.4,34.0,30.10,South,184,1.0,14.0,27,0.00,,---,0.00,VWS V14.00,2013-11-29 18:55:00,
2013-11-29 12:56:00,69.4,34.9,30.10,SW,216,0.0,14.0,28,0.00,,---,0.00,VWS V14.00,2013-11-29 18:56:00,
2013-11-29 12:57:00,69.6,33.2,30.10,South,176,3.0,14.0,26,0.00,,---,0.00,VWS V14.00,2013-11-29 18:57:00,
2013-11-29 12:58:00,69.8,34.3,30.10,SSW,192,2.0,14.0,27,0.00,,---,0.00,VWS V14.00,2013-11-29 18:58:00,
2013-11-29 12:59:00,69.8,34.3,30.10,South,175,7.0,14.0,27,0.00,,---,0.00,VWS V14.00,2013-11-29 18:59:00,
2013-11-29 13:00:00,69.6,34.2,30.08,SSW,208,0.0,14.0,27,0.00,,---,0.00,VWS V14.00,2013-11-29 19:00:00,
2013-11-29 13:01:00,69.6,33.2,30.08,South,184,6.0,8.0,26,0.00,,---,0.00,VWS V14.00,2013-11-29 19:01:00,
2013-11-29 13:02:00,69.3,33.9,30.08,SSW,193,2.0,8.0,27,0.00,,---,0.00,VWS V14.00,2013-11-29 19:02:00,
2013-11-29 13:03:00,69.4,34.0,30.08,SSW,210,1.0,8.0,27,0.00,,---,0.00,VWS V14.00,2013-11-29 19:03:00,
2013-11-29 13:04:00,69.4,34.0,30.08,SSW,212,1.0,12.0,27,0.00,,---,0.00,VWS V14.00,2013-11-29 19:04:00,
2013-11-29 13:05:00,69.4,34.0,30.08,South,175,0.0,12.0,27,0.00,,---,0.00,VWS V14.00,2013-11-29 19:05:00,
2013-11-29 13:06:00,69.4,34.0,30.08,South,175,0.0,12.0,27,0.00,,---,0.00,VWS V14.00,2013-11-29 19:06:00,
2013-11-29 13:07:00,69.6,34.2,30.08,South,185,0.0,12.0,27,0.00,,---,0.00,VWS V14.00,2013-11-29 19:07:00,
2013-11-29 13:08:00,69.9,34.4,30.08,SSE,151,3.0,12.0,27,0.00,,---,0.00,VWS V14.00,2013-11-29 19:08:00,
2013-11-29 13:09:00,70.1,34.6,30.08,SSE,158,3.0,12.0,27,0.00,,---,0.00,VWS V14.00,2013-11-29 19:09:00,
2013-11-29 13:10:00,69.9,34.4,30.08,South,172,3.0,12.0,27,0.00,,---,0.00,VWS V14.00,2013-11-29 19:10:00,
2013-11-29 13:11:00,69.9,34.4,30.08,SE,127,1.0,12.0,27,0.00,,---,0.00,VWS V14.00,2013-11-29 19:11:00,
2013-11-29 13:12:00,70.1,32.7,30.08,South,172,5.0,12.0,25,0.00,,---,0.00,VWS V14.00,2013-11-29 19:12:00,
2013-11-29 13:13:00,69.9,32.5,30.08,South,169,0.0,12.0,25,0.00,,---,0.00,VWS V14.00,2013-11-29 19:13:00,
2013-11-29 13:14:00,69.9,33.5,30.08,SSE,168,0.0,12.0,26,0.00,,---,0.00,VWS V14.00,2013-11-29 19:14:00,
2013-11-29 13:15:00,70.1,33.7,30.08,SSE,154,1.0,12.0,26,0.00,,---,0.00,VWS V14.00,2013-11-29 19:15:00,
2013-11-29 13:16:00,70.3,33.8,30.08,SSE,158,1.0,12.0,26,0.00,,---,0.00,VWS V14.00,2013-11-29 19:16:00,
2013-11-29 13:17:00,70.4,33.9,30.08,South,175,2.0,12.0,26,0.00,,---,0.00,VWS V14.00,2013-11-29 19:17:00,
2013-11-29 13:18:00,70.6,34.1,30.08,South,175,0.0,12.0,26,0.00,,---,0.00,VWS V14.00,2013-11-29 19:18:00,
2013-11-29 13:19:00,70.9,33.4,30.08,SSW,199,6.0,12.0,25,0.00,,---,0.00,VWS V14.00,2013-11-29 19:19:00,
2013-11-29 13:20:00,70.8,33.3,30.08,South,185,1.0,12.0,25,0.00,,---,0.00,VWS V14.00,2013-11-29 19:20:00,
2013-11-29 13:21:00,70.6,34.1,30.08,South,191,0.0,12.0,26,0.00,,---,0.00,VWS V14.00,2013-11-29 19:21:00,
2013-11-29 13:22:00,70.4,33.9,30.08,SSW,192,2.0,12.0,26,0.00,,---,0.00,VWS V14.00,2013-11-29 19:22:00,
2013-11-29 13:23:00,70.6,34.1,30.08,SSW,195,0.0,12.0,26,0.00,,---,0.00,VWS V14.00,2013-11-29 19:23:00,
2013-11-29 13:24:00,70.6,33.1,30.08,SSW,199,0.0,12.0,25,0.00,,---,0.00,VWS V14.00,2013-11-29 19:24:00,
2013-11-29 13:25:00,70.9,33.4,30.08,South,174,0.0,12.0,25,0.00,,---,0.00,VWS V14.00,2013-11-29 19:25:00,
2013-11-29 13:26:00,70.9,33.4,30.08,South,174,0.0,12.0,25,0.00,,---,0.00,VWS V14.00,2013-11-29 19:26:00,
2013-11-29 13:27:00,70.8,32.3,30.08,North,0,0.0,12.0,24,0.00,,---,0.00,VWS V14.00,2013-11-29 19:27:00,
2013-11-29 13:28:00,70.8,32.3,30.08,South,174,0.0,12.0,24,0.00,,---,0.00,VWS V14.00,2013-11-29 19:28:00,
2013-11-29 13:29:00,70.9,32.3,30.08,South,175,0.0,12.0,24,0.00,,---,0.00,VWS V14.00,2013-11-29 19:29:00,
2013-11-29 13:30:00,70.9,33.4,30.04,SSW,195,3.0,12.0,25,0.00,,---,0.00,VWS V14.00,2013-11-29 19:30:00,
2013-11-29 13:31:00,71.1,32.5,30.04,SSW,195,0.0,3.0,24,0.00,,---,0.00,VWS V14.00,2013-11-29 19:31:00,
2013-11-29 13:32:00,70.9,32.3,30.04,SW,230,0.0,3.0,24,0.00,,---,0.00,VWS V14.00,2013-11-29 19:32:00,
2013-11-29 13:33:00,71.1,33.5,30.04,SW,233,0.0,3.0,25,0.00,,---,0.00,VWS V14.00,2013-11-29 19:33:00,
2013-11-29 13:34:00,71.3,33.7,30.04,SW,233,0.0,3.0,25,0.00,,---,0.00,VWS V14.00,2013-11-29 19:34:00,
2013-11-29 13:35:00,71.6,34.0,30.04,SW,227,0.0,3.0,25,0.00,,---,0.00,VWS V14.00,2013-11-29 19:35:00,
2013-11-29 13:36:00,71.6,34.0,30.04,SW,227,0.0,3.0,25,0.00,,---,0.00,VWS V14.00,2013-11-29 19:36:00,
2013-11-29 13:37:00,71.8,33.1,30.04,SW,227,0.0,3.0,24,0.00,,---,0.00,VWS V14.00,2013-11-29 19:37:00,
2013-11-29 13:38:00,71.8,33.1,30.04,SW,227,0.0,3.0,24,0.00,,---,0.00,VWS V14.00,2013-11-29 19:38:00,
2013-11-29 13:39:00,71.6,32.9,30.04,South,176,0.0,8.0,24,0.00,,---,0.00,VWS V14.00,2013-11-29 19:39:00,
2013-11-29 13:40:00,71.6,32.9,30.04,SSW,198,0.0,8.0,24,0.00,,---,0.00,VWS V14.00,2013-11-29 19:40:00,
2013-11-29 13:41:00,71.8,33.1,30.04,SSW,198,0.0,8.0,24,0.00,,---,0.00,VWS V14.00,2013-11-29 19:41:00,
2013-11-29 13:42:00,71.8,33.1,30.04,SSW,198,0.0,8.0,24,0.00,,---,0.00,VWS V14.00,2013-11-29 19:42:00,
2013-11-29 13:43:00,72.1,33.3,30.04,SSW,198,0.0,8.0,24,0.00,,---,0.00,VWS V14.00,2013-11-29 19:43:00,
2013-11-29 13:44:00,72.1,32.3,30.04,SSW,200,0.0,8.0,23,0.00,,---,0.00,VWS V14.00,2013-11-29 19:44:00,
2013-11-29 13:45:00,72.1,32.3,30.05,SSW,200,0.0,8.0,23,0.00,,---,0.00,VWS V14.00,2013-11-29 19:45:00,
2013-11-29 13:46:00,72.1,32.3,30.05,SSW,202,0.0,8.0,23,0.00,,---,0.00,VWS V14.00,2013-11-29 19:46:00,
2013-11-29 13:47:00,72.1,32.3,30.05,SSW,202,0.0,8.0,23,0.00,,---,0.00,VWS V14.00,2013-11-29 19:47:00,
2013-11-29 13:48:00,72.3,32.5,30.05,SSW,202,0.0,8.0,23,0.00,,---,0.00,VWS V14.00,2013-11-29 19:48:00,
2013-11-29 13:49:00,72.3,32.5,30.05,SSW,202,0.0,8.0,23,0.00,,---,0.00,VWS V14.00,2013-11-29 19:49:00,
2013-11-29 13:50:00,72.5,32.6,30.05,SSW,202,0.0,8.0,23,0.00,,---,0.00,VWS V14.00,2013-11-29 19:50:00,
2013-11-29 13:51:00,72.5,32.6,30.05,SSW,202,0.0,8.0,23,0.00,,---,0.00,VWS V14.00,2013-11-29 19:51:00,
2013-11-29 13:52:00,72.8,32.9,30.05,SSW,202,0.0,8.0,23,0.00,,---,0.00,VWS V14.00,2013-11-29 19:52:00,
2013-11-29 13:53:00,72.7,32.8,30.05,SE,136,0.0,8.0,23,0.00,,---,0.00,VWS V14.00,2013-11-29 19:53:00,
2013-11-29 13:54:00,72.7,32.8,30.05,SE,145,0.0,8.0,23,0.00,,---,0.00,VWS V14.00,2013-11-29 19:54:00,
2013-11-29 13:55:00,72.8,32.9,30.05,SE,145,0.0,8.0,23,0.00,,---,0.00,VWS V14.00,2013-11-29 19:55:00,
2013-11-29 13:56:00,72.8,32.9,30.05,SSE,155,0.0,8.0,23,0.00,,---,0.00,VWS V14.00,2013-11-29 19:56:00,
2013-11-29 13:57:00,72.7,32.8,30.05,SE,128,4.0,8.0,23,0.00,,---,0.00,VWS V14.00,2013-11-29 19:57:00,
2013-11-29 13:58:00,72.8,32.9,30.05,SSE,155,2.0,8.0,23,0.00,,---,0.00,VWS V14.00,2013-11-29 19:58:00,
2013-11-29 13:59:00,73.0,33.0,30.05,South,171,0.0,8.0,23,0.00,,---,0.00,VWS V14.00,2013-11-29 19:59:00,
2013-11-29 14:00:00,73.2,33.2,30.02,South,174,2.0,8.0,23,0.00,,---,0.00,VWS V14.00,2013-11-29 20:00:00,
2013-11-29 14:01:00,73.2,32.1,30.02,South,175,0.0,6.0,22,0.00,,---,0.00,VWS V14.00,2013-11-29 20:01:00,
2013-11-29 14:02:00,73.0,32.0,30.02,South,172,0.0,6.0,22,0.00,,---,0.00,VWS V14.00,2013-11-29 20:02:00,
2013-11-29 14:03:00,73.2,32.1,30.02,ESE,107,3.0,6.0,22,0.00,,---,0.00,VWS V14.00,2013-11-29 20:03:00,
2013-11-29 14:04:00,73.2,32.1,30.02,South,181,3.0,6.0,22,0.00,,---,0.00,VWS V14.00,2013-11-29 20:04:00,
2013-11-29 14:05:00,73.0,32.0,30.02,SSE,162,0.0,6.0,22,0.00,,---,0.00,VWS V14.00,2013-11-29 20:05:00,
2013-11-29 14:06:00,73.2,33.2,30.02,SE,143,0.0,6.0,23,0.00,,---,0.00,VWS V14.00,2013-11-29 20:06:00,
2013-11-29 14:07:00,73.0,33.0,30.02,ESE,123,0.0,6.0,23,0.00,,---,0.00,VWS V14.00,2013-11-29 20:07:00,
2013-11-29 14:08:00,72.8,32.9,30.02,SE,126,0.0,6.0,23,0.00,,---,0.00,VWS V14.00,2013-11-29 20:08:00,
2013-11-29 14:09:00,72.7,32.8,30.02,South,181,0.0,6.0,23,0.00,,---,0.00,VWS V14.00,2013-11-29 20:09:00,
2013-11-29 14:10:00,72.7,31.7,30.02,South,181,0.0,6.0,22,0.00,,---,0.00,VWS V14.00,2013-11-29 20:10:00,
2013-11-29 14:11:00,72.5,31.5,30.02,SSW,209,1.0,8.0,22,0.00,,---,0.00,VWS V14.00,2013-11-29 20:11:00,
2013-11-29 14:12:00,72.7,31.7,30.02,SW,223,1.0,8.0,22,0.00,,---,0.00,VWS V14.00,2013-11-29 20:12:00,
2013-11-29 14:13:00,72.5,31.5,30.02,SSW,202,1.0,8.0,22,0.00,,---,0.00,VWS V14.00,2013-11-29 20:13:00,
2013-11-29 14:14:00,72.5,31.5,30.02,SSW,202,0.0,8.0,22,0.00,,---,0.00,VWS V14.00,2013-11-29 20:14:00,
2013-11-29 14:15:00,72.7,31.7,29.92,SSW,202,0.0,8.0,22,0.00,,---,0.00,VWS V14.00,2013-11-29 20:15:00,
2013-11-29 14:16:00,72.8,31.8,29.92,SSW,202,0.0,8.0,22,0.00,,---,0.00,VWS V14.00,2013-11-29 20:16:00,
2013-11-29 14:17:00,72.7,31.7,29.92,SSW,205,0.0,8.0,22,0.00,,---,0.00,VWS V14.00,2013-11-29 20:17:00,
2013-11-29 14:18:00,72.7,31.7,29.92,SSW,205,0.0,8.0,22,0.00,,---,0.00,VWS V14.00,2013-11-29 20:18:00,
2013-11-29 14:19:00,72.7,30.5,29.92,SSW,205,0.0,8.0,21,0.00,,---,0.00,VWS V14.00,2013-11-29 20:19:00,
2013-11-29 14:20:00,72.5,31.5,29.92,SSW,205,0.0,8.0,22,0.00,,---,0.00,VWS V14.00,2013-11-29 20:20:00,
2013-11-29 14:21:00,72.3,31.4,29.92,SSW,205,0.0,8.0,22,0.00,,---,0.00,VWS V14.00,2013-11-29 20:21:00,
2013-11-29 14:22:00,72.1,32.3,29.92,West,271,0.0,8.0,23,0.00,,---,0.00,VWS V14.00,2013-11-29 20:22:00,
2013-11-29 14:23:00,72.0,32.2,29.92,West,271,0.0,8.0,23,0.00,,---,0.00,VWS V14.00,2013-11-29 20:23:00,
2013-11-29 14:24:00,71.8,32.0,29.92,West,270,0.0,8.0,23,0.00,,---,0.00,VWS V14.00,2013-11-29 20:24:00,
2013-11-29 14:25:00,71.6,31.9,29.92,South,181,5.0,8.0,23,0.00,,---,0.00,VWS V14.00,2013-11-29 20:25:00,
2013-11-29 14:26:00,71.3,31.6,29.92,South,189,2.0,8.0,23,0.00,,---,0.00,VWS V14.00,2013-11-29 20:26:00,
2013-11-29 14:27:00,71.1,31.5,29.92,South,189,0.0,8.0,23,0.00,,---,0.00,VWS V14.00,2013-11-29 20:27:00,
2013-11-29 14:28:00,70.9,31.3,29.92,SSW,209,2.0,8.0,23,0.00,,---,0.00,VWS V14.00,2013-11-29 20:28:00,
2013-11-29 14:29:00,70.8,31.2,29.92,SSW,209,0.0,8.0,23,0.00,,---,0.00,VWS V14.00,2013-11-29 20:29:00,
2013-11-29 14:30:00,70.6,31.0,29.93,SSW,198,0.0,8.0,23,0.00,,---,0.00,VWS V14.00,2013-11-29 20:30:00,
2013-11-29 14:31:00,70.6,31.0,29.93,South,191,6.0,10.0,23,0.00,,---,0.00,VWS V14.00,2013-11-29 20:31:00,
2013-11-29 14:32:00,70.6,33.1,29.93,SSW,205,0.0,10.0,25,0.00,,---,0.00,VWS V14.00,2013-11-29 20:32:00,
2013-11-29 14:33:00,70.8,32.3,29.93,SSW,200,2.0,10.0,24,0.00,,---,0.00,VWS V14.00,2013-11-29 20:33:00,
2013-11-29 14:34:00,70.8,32.3,29.93,South,191,0.0,10.0,24,0.00,,---,0.00,VWS V14.00,2013-11-29 20:34:00,
2013-11-29 14:35:00,70.8,33.3,29.93,South,181,6.0,10.0,25,0.00,,---,0.00,VWS V14.00,2013-11-29 20:35:00,
2013-11-29 14:36:00,70.8,33.3,29.93,SSE,160,1.0,10.0,25,0.00,,---,0.00,VWS V14.00,2013-11-29 20:36:00,
2013-11-29 14:37:00,70.4,32.9,29.93,SSW,210,3.0,11.0,25,0.00,,---,0.00,VWS V14.00,2013-11-29 20:37:00,
2013-11-29 14:38:00,70.4,32.9,29.93,SSW,202,0.0,11.0,25,0.00,,---,0.00,VWS V14.00,2013-11-29 20:38:00,
2013-11-29 14:39:00,70.4,32.9,29.93,SW,220,3.0,11.0,25,0.00,,---,0.00,VWS V14.00,2013-11-29 20:39:00,
2013-11-29 14:40:00,70.3,32.8,29.93,SSW,208,2.0,11.0,25,0.00,,---,0.00,VWS V14.00,2013-11-29 20:40:00,
2013-11-29 14:41:00,70.1,32.7,29.93,SSW,196,0.0,11.0,25,0.00,,---,0.00,VWS V14.00,2013-11-29 20:41:00,
2013-11-29 14:42:00,70.1,32.7,29.93,SSW,198,0.0,11.0,25,0.00,,---,0.00,VWS V14.00,2013-11-29 20:42:00,
2013-11-29 14:43:00,69.9,32.5,29.93,SSW,205,3.0,11.0,25,0.00,,---,0.00,VWS V14.00,2013-11-29 20:43:00,
2013-11-29 14:44:00,69.9,32.5,29.93,SSW,200,2.0,11.0,25,0.00,,---,0.00,VWS V14.00,2013-11-29 20:44:00,
2013-11-29 14:45:00,69.8,32.4,29.94,SSW,199,0.0,11.0,25,0.00,,---,0.00,VWS V14.00,2013-11-29 20:45:00,
2013-11-29 14:46:00,69.6,32.2,29.94,SSW,192,0.0,11.0,25,0.00,,---,0.00,VWS V14.00,2013-11-29 20:46:00,
2013-11-29 14:47:00,69.4,33.1,29.94,SSW,206,2.0,11.0,26,0.00,,---,0.00,VWS V14.00,2013-11-29 20:47:00,
2013-11-29 14:48:00,69.4,34.0,29.94,SSW,205,4.0,11.0,27,0.00,,---,0.00,VWS V14.00,2013-11-29 20:48:00,
2013-11-29 14:49:00,69.3,33.0,29.94,SSW,196,2.0,11.0,26,0.00,,---,0.00,VWS V14.00,2013-11-29 20:49:00,
2013-11-29 14:50:00,69.3,32.0,29.94,SSW,213,5.0,11.0,25,0.00,,---,0.00,VWS V14.00,2013-11-29 20:50:00,
2013-11-29 14:51:00,69.1,32.8,29.94,South,176,2.0,11.0,26,0.00,,---,0.00,VWS V14.00,2013-11-29 20:51:00,
2013-11-29 14:52:00,69.1,32.8,29.94,South,182,1.0,11.0,26,0.00,,---,0.00,VWS V14.00,2013-11-29 20:52:00,
2013-11-29 14:53:00,68.9,32.6,29.94,SSW,209,5.0,11.0,26,0.00,,---,0.00,VWS V14.00,2013-11-29 20:53:00,
2013-11-29 14:54:00,69.1,32.8,29.94,SSW,203,0.0,11.0,26,0.00,,---,0.00,VWS V14.00,2013-11-29 20:54:00,
2013-11-29 14:55:00,69.1,32.8,29.94,SSW,202,0.0,11.0,26,0.00,,---,0.00,VWS V14.00,2013-11-29 20:55:00,
2013-11-29 14:56:00,68.9,32.6,29.94,SSW,213,2.0,11.0,26,0.00,,---,0.00,VWS V14.00,2013-11-29 20:56:00,
2013-11-29 14:57:00,68.9,32.6,29.94,SSW,202,0.0,11.0,26,0.00,,---,0.00,VWS V14.00,2013-11-29 20:57:00,
2013-11-29 14:58:00,68.8,32.5,29.94,South,184,3.0,11.0,26,0.00,,---,0.00,VWS V14.00,2013-11-29 20:58:00,
2013-11-29 14:59:00,68.9,32.6,29.94,SSW,198,0.0,11.0,26,0.00,,---,0.00,VWS V14.00,2013-11-29 20:59:00,
2013-11-29 15:00:00,68.8,32.5,29.93,SW,215,3.0,11.0,26,0.00,,---,0.00,VWS V14.00,2013-11-29 21:00:00,
2013-11-29 15:01:00,68.8,32.5,29.93,SSW,209,0.0,8.0,26,0.00,,---,0.00,VWS V14.00,2013-11-29 21:01:00,
2013-11-29 15:02:00,68.8,32.5,29.93,WSW,237,0.0,8.0,26,0.00,,---,0.00,VWS V14.00,2013-11-29 21:02:00,
2013-11-29 15:03:00,68.9,32.6,29.93,SW,233,0.0,8.0,26,0.00,,---,0.00,VWS V14.00,2013-11-29 21:03:00,
2013-11-29 15:04:00,68.9,32.6,29.93,SW,236,0.0,8.0,26,0.00,,---,0.00,VWS V14.00,2013-11-29 21:04:00,
2013-11-29 15:05:00,68.9,32.6,29.93,SW,223,2.0,8.0,26,0.00,,---,0.00,VWS V14.00,2013-11-29 21:05:00,
2013-11-29 15:06:00,68.9,32.6,29.93,SW,230,0.0,8.0,26,0.00,,---,0.00,VWS V14.00,2013-11-29 21:06:00,
2013-11-29 15:07:00,69.1,32.8,29.93,SSW,199,0.0,8.0,26,0.00,,---,0.00,VWS V14.00,2013-11-29 21:07:00,
2013-11-29 15:08:00,69.1,32.8,29.93,SSW,196,0.0,8.0,26,0.00,,---,0.00,VWS V14.00,2013-11-29 21:08:00,
2013-11-29 15:09:00,69.1,32.8,29.93,WSW,256,0.0,8.0,26,0.00,,---,0.00,VWS V14.00,2013-11-29 21:09:00,
2013-11-29 15:10:00,69.1,32.8,29.93,West,260,0.0,8.0,26,0.00,,---,0.00,VWS V14.00,2013-11-29 21:10:00,
2013-11-29 15:11:00,69.1,32.8,29.93,SW,230,0.0,8.0,26,0.00,,---,0.00,VWS V14.00,2013-11-29 21:11:00,
2013-11-29 15:12:00,69.3,33.0,29.93,SW,230,0.0,8.0,26,0.00,,---,0.00,VWS V14.00,2013-11-29 21:12:00,
2013-11-29 15:13:00,69.3,33.0,29.93,SW,217,4.0,8.0,26,0.00,,---,0.00,VWS V14.00,2013-11-29 21:13:00,
2013-11-29 15:14:00,69.4,32.1,29.93,WSW,248,0.0,8.0,25,0.00,,---,0.00,VWS V14.00,2013-11-29 21:14:00,
2013-11-29 15:15:00,69.6,32.2,29.96,West,280,0.0,8.0,25,0.00,,---,0.00,VWS V14.00,2013-11-29 21:15:00,
2013-11-29 15:16:00,69.8,32.4,29.96,WSW,239,1.0,8.0,25,0.00,,---,0.00,VWS V14.00,2013-11-29 21:16:00,
2013-11-29 15:17:00,69.8,32.4,29.96,WNW,282,0.0,8.0,25,0.00,,---,0.00,VWS V14.00,2013-11-29 21:17:00,
2013-11-29 15:18:00,69.8,32.4,29.96,WSW,240,0.0,8.0,25,0.00,,---,0.00,VWS V14.00,2013-11-29 21:18:00,
2013-11-29 15:19:00,69.8,32.4,29.96,WSW,237,0.0,8.0,25,0.00,,---,0.00,VWS V14.00,2013-11-29 21:19:00,
2013-11-29 15:20:00,69.8,32.4,29.96,WSW,237,0.0,8.0,25,0.00,,---,0.00,VWS V14.00,2013-11-29 21:20:00,
2013-11-29 15:21:00,69.8,31.4,29.96,SW,227,1.0,8.0,24,0.00,,---,0.00,VWS V14.00,2013-11-29 21:21:00,
2013-11-29 15:22:00,69.8,31.4,29.96,SW,227,0.0,8.0,24,0.00,,---,0.00,VWS V14.00,2013-11-29 21:22:00,
2013-11-29 15:23:00,69.8,30.4,29.96,WSW,257,0.0,8.0,23,0.00,,---,0.00,VWS V14.00,2013-11-29 21:23:00,
2013-11-29 15:24:00,69.8,30.4,29.96,SW,223,0.0,8.0,23,0.00,,---,0.00,VWS V14.00,2013-11-29 21:24:00,
2013-11-29 15:25:00,69.8,30.4,29.96,SW,224,0.0,8.0,23,0.00,,---,0.00,VWS V14.00,2013-11-29 21:25:00,
2013-11-29 15:26:00,69.8,31.4,29.96,SW,233,0.0,8.0,24,0.00,,---,0.00,VWS V14.00,2013-11-29 21:26:00,
2013-11-29 15:27:00,69.8,31.4,29.96,SW,233,0.0,8.0,24,0.00,,---,0.00,VWS V14.00,2013-11-29 21:27:00,
2013-11-29 15:28:00,69.9,31.5,29.96,SSW,213,0.0,8.0,24,0.00,,---,0.00,VWS V14.00,2013-11-29 21:28:00,
2013-11-29 15:29:00,70.3,31.8,29.96,SSW,198,0.0,8.0,24,0.00,,---,0.00,VWS V14.00,2013-11-29 21:29:00,
2013-11-29 15:30:00,70.8,32.3,29.96,SSW,199,1.0,8.0,24,0.00,,---,0.00,VWS V14.00,2013-11-29 21:30:00,
2013-11-29 15:31:00,70.9,31.3,29.96,SW,232,0.0,5.0,23,0.00,,---,0.00,VWS V14.00,2013-11-29 21:31:00,
2013-11-29 15:32:00,70.9,31.3,29.96,South,191,1.0,5.0,23,0.00,,---,0.00,VWS V14.00,2013-11-29 21:32:00,
2013-11-29 15:33:00,71.3,31.6,29.96,SSW,202,2.0,5.0,23,0.00,,---,0.00,VWS V14.00,2013-11-29 21:33:00,
2013-11-29 15:34:00,71.3,30.5,29.96,South,189,7.0,7.0,22,0.00,,---,0.00,VWS V14.00,2013-11-29 21:34:00,
2013-11-29 15:35:00,71.6,30.8,29.96,SW,227,2.0,7.0,22,0.00,,---,0.00,VWS V14.00,2013-11-29 21:35:00,
2013-11-29 15:36:00,71.6,29.6,29.96,WSW,244,2.0,7.0,21,0.00,,---,0.00,VWS V14.00,2013-11-29 21:36:00,
2013-11-29 15:37:00,71.6,30.8,29.96,WSW,243,0.0,7.0,22,0.00,,---,0.00,VWS V14.00,2013-11-29 21:37:00,
2013-11-29 15:38:00,71.8,30.9,29.96,West,267,0.0,7.0,22,0.00,,---,0.00,VWS V14.00,2013-11-29 21:38:00,
2013-11-29 15:39:00,71.8,30.9,29.96,West,271,14.0,14.0,22,0.00,,---,0.00,VWS V14.00,2013-11-29 21:39:00,
2013-11-29 15:40:00,71.1,31.5,29.96,West,281,7.0,14.0,23,0.00,,---,0.00,VWS V14.00,2013-11-29 21:40:00,
2013-11-29 15:41:00,71.1,33.5,29.96,West,275,0.0,14.0,25,0.00,,---,0.00,VWS V14.00,2013-11-29 21:41:00,
2013-11-29 15:42:00,70.9,33.4,29.96,West,281,5.0,14.0,25,0.00,,---,0.00,VWS V14.00,2013-11-29 21:42:00,
2013-11-29 15:43:00,70.9,32.3,29.96,WNW,302,3.0,14.0,24,0.00,,---,0.00,VWS V14.00,2013-11-29 21:43:00,
2013-11-29 15:44:00,70.9,32.3,29.96,NW,304,2.0,14.0,24,0.00,,---,0.00,VWS V14.00,2013-11-29 21:44:00,
2013-11-29 15:45:00,70.9,33.4,29.95,NW,316,7.0,14.0,25,0.00,,---,0.00,VWS V14.00,2013-11-29 21:45:00,
2013-11-29 15:46:00,70.6,34.1,29.95,NW,304,8.0,14.0,26,0.00,,---,0.00,VWS V14.00,2013-11-29 21:46:00,
2013-11-29 15:47:00,70.6,34.1,29.95,WNW,298,5.0,14.0,26,0.00,,---,0.00,VWS V14.00,2013-11-29 21:47:00,
2013-11-29 15:48:00,70.4,32.9,29.95,NNW,332,8.0,14.0,25,0.00,,---,0.00,VWS V14.00,2013-11-29 21:48:00,
2013-11-29 15:49:00,70.3,33.8,29.95,NNW,332,3.0,14.0,26,0.00,,---,0.00,VWS V14.00,2013-11-29 21:49:00,
2013-11-29 15:50:00,70.3,34.8,29.95,NNW,343,5.0,14.0,27,0.00,,---,0.00,VWS V14.00,2013-11-29 21:50:00,
2013-11-29 15:51:00,70.3,33.8,29.95,North,350,10.0,14.0,26,0.00,,---,0.00,VWS V14.00,2013-11-29 21:51:00,
2013-11-29 15:52:00,70.1,32.7,29.95,North,349,7.0,14.0,25,0.00,,---,0.00,VWS V14.00,2013-11-29 21:52:00,
2013-11-29 15:53:00,70.1,33.7,29.95,NNW,344,6.0,14.0,26,0.00,,---,0.00,VWS V14.00,2013-11-29 21:53:00,
2013-11-29 15:54:00,70.1,33.7,29.95,NNW,336,3.0,14.0,26,0.00,,---,0.00,VWS V14.00,2013-11-29 21:54:00,
2013-11-29 15:55:00,70.1,33.7,29.95,North,8,9.0,14.0,26,0.00,,---,0.00,VWS V14.00,2013-11-29 21:55:00,
2013-11-29 15:56:00,69.9,32.5,29.95,North,356,3.0,14.0,25,0.00,,---,0.00,VWS V14.00,2013-11-29 21:56:00,
2013-11-29 15:57:00,69.9,33.5,29.95,NNW,346,3.0,14.0,26,0.00,,---,0.00,VWS V14.00,2013-11-29 21:57:00,
2013-11-29 15:58:00,69.9,33.5,29.95,NNW,337,7.0,14.0,26,0.00,,---,0.00,VWS V14.00,2013-11-29 21:58:00,
2013-11-29 15:59:00,69.9,33.5,29.95,NNW,344,5.0,14.0,26,0.00,,---,0.00,VWS V14.00,2013-11-29 21:59:00,
2013-11-29 16:00:00,69.9,33.5,29.96,NNW,346,6.0,14.0,26,0.00,,---,0.00,VWS V14.00,2013-11-29 22:00:00,
2013-11-29 16:01:00,69.9,34.4,29.96,NNW,347,5.0,7.0,27,0.00,,---,0.00,VWS V14.00,2013-11-29 22:01:00,
2013-11-29 16:02:00,69.8,34.3,29.96,NNW,347,5.0,7.0,27,0.00,,---,0.00,VWS V14.00,2013-11-29 22:02:00,
2013-11-29 16:03:00,69.8,33.4,29.96,North,349,4.0,7.0,26,0.00,,---,0.00,VWS V14.00,2013-11-29 22:03:00,
2013-11-29 16:04:00,69.8,34.3,29.96,North,349,5.0,7.0,27,0.00,,---,0.00,VWS V14.00,2013-11-29 22:04:00,
2013-11-29 16:05:00,69.8,34.3,29.96,NNW,347,2.0,7.0,27,0.00,,---,0.00,VWS V14.00,2013-11-29 22:05:00,
2013-11-29 16:06:00,69.8,34.3,29.96,North,349,4.0,7.0,27,0.00,,---,0.00,VWS V14.00,2013-11-29 22:06:00,
2013-11-29 16:07:00,69.9,33.5,29.96,NNW,347,4.0,7.0,26,0.00,,---,0.00,VWS V14.00,2013-11-29 22:07:00,
2013-11-29 16:08:00,69.8,33.4,29.96,NNW,343,6.0,8.0,26,0.00,,---,0.00,VWS V14.00,2013-11-29 22:08:00,
2013-11-29 16:09:00,69.8,35.3,29.96,NNW,342,6.0,8.0,28,0.00,,---,0.00,VWS V14.00,2013-11-29 22:09:00,
2013-11-29 16:10:00,69.8,34.3,29.96,NNW,342,7.0,8.0,27,0.00,,---,0.00,VWS V14.00,2013-11-29 22:10:00,
2013-11-29 16:11:00,69.8,33.4,29.96,NNW,336,6.0,8.0,26,0.00,,---,0.00,VWS V14.00,2013-11-29 22:11:00,
2013-11-29 16:12:00,69.6,34.2,29.96,NNW,336,5.0,8.0,27,0.00,,---,0.00,VWS V14.00,2013-11-29 22:12:00,
2013-11-29 16:13:00,69.6,33.2,29.96,NNW,336,5.0,8.0,26,0.00,,---,0.00,VWS V14.00,2013-11-29 22:13:00,
2013-11-29 16:14:00,69.6,35.1,29.96,NNW,335,5.0,8.0,28,0.00,,---,0.00,VWS V14.00,2013-11-29 22:14:00,
2013-11-29 16:15:00,69.6,35.1,29.97,NNW,335,0.0,8.0,28,0.00,,---,0.00,VWS V14.00,2013-11-29 22:15:00,
2013-11-29 16:16:00,69.8,34.3,29.97,NNW,335,0.0,8.0,27,0.00,,---,0.00,VWS V14.00,2013-11-29 22:16:00,
2013-11-29 16:17:00,69.8,34.3,29.97,NNW,335,0.0,8.0,27,0.00,,---,0.00,VWS V14.00,2013-11-29 22:17:00,
2013-11-29 16:18:00,69.8,33.4,29.97,NNW,337,0.0,8.0,26,0.00,,---,0.00,VWS V14.00,2013-11-29 22:18:00,
2013-11-29 16:19:00,69.6,33.2,29.97,NNW,337,0.0,8.0,26,0.00,,---,0.00,VWS V14.00,2013-11-29 22:19:00,
2013-11-29 16:20:00,69.6,34.2,29.97,NNW,337,0.0,8.0,27,0.00,,---,0.00,VWS V14.00,2013-11-29 22:20:00,
2013-11-29 16:21:00,69.6,34.2,29.97,NNW,337,5.0,8.0,27,0.00,,---,0.00,VWS V14.00,2013-11-29 22:21:00,
2013-11-29 16:22:00,69.4,34.0,29.97,NNW,335,6.0,8.0,27,0.00,,---,0.00,VWS V14.00,2013-11-29 22:22:00,
2013-11-29 16:23:00,69.4,34.0,29.97,NNW,337,6.0,8.0,27,0.00,,---,0.00,VWS V14.00,2013-11-29 22:23:00,
2013-11-29 16:24:00,69.3,33.9,29.97,NNW,339,6.0,8.0,27,0.00,,---,0.00,VWS V14.00,2013-11-29 22:24:00,
2013-11-29 16:25:00,69.3,33.9,29.97,NNW,339,0.0,8.0,27,0.00,,---,0.00,VWS V14.00,2013-11-29 22:25:00,
2013-11-29 16:26:00,69.3,33.9,29.97,NNW,339,0.0,8.0,27,0.00,,---,0.00,VWS V14.00,2013-11-29 22:26:00,
2013-11-29 16:27:00,69.3,33.9,29.97,NNW,339,0.0,8.0,27,0.00,,---,0.00,VWS V14.00,2013-11-29 22:27:00,
2013-11-29 16:28:00,69.3,33.9,29.97,NNW,339,0.0,8.0,27,0.00,,---,0.00,VWS V14.00,2013-11-29 22:28:00,
2013-11-29 16:29:00,69.3,33.9,29.97,NNW,339,0.0,8.0,27,0.00,,---,0.00,VWS V14.00,2013-11-29 22:29:00,
2013-11-29 16:30:00,69.3,33.9,29.96,NNW,339,0.0,8.0,27,0.00,,---,0.00,VWS V14.00,2013-11-29 22:30:00,
2013-11-29 16:31:00,69.3,33.9,29.96,NNW,339,0.0,0.0,27,0.00,,---,0.00,VWS V14.00,2013-11-29 22:31:00,
2013-11-29 16:32:00,69.3,33.9,29.96,NNW,339,0.0,0.0,27,0.00,,---,0.00,VWS V14.00,2013-11-29 22:32:00,
2013-11-29 16:33:00,69.1,33.7,29.96,NNW,337,0.0,0.0,27,0.00,,---,0.00,VWS V14.00,2013-11-29 22:33:00,
2013-11-29 16:34:00,69.1,33.7,29.96,NNW,337,0.0,0.0,27,0.00,,---,0.00,VWS V14.00,2013-11-29 22:34:00,
2013-11-29 16:35:00,69.1,33.7,29.96,NNW,337,0.0,0.0,27,0.00,,---,0.00,VWS V14.00,2013-11-29 22:35:00,
2013-11-29 16:36:00,69.3,33.9,29.96,NNW,337,0.0,0.0,27,0.00,,---,0.00,VWS V14.00,2013-11-29 22:36:00,
2013-11-29 16:37:00,69.1,33.7,29.96,NNW,337,0.0,0.0,27,0.00,,---,0.00,VWS V14.00,2013-11-29 22:37:00,
2013-11-29 16:38:00,69.3,33.9,29.96,NNW,337,0.0,0.0,27,0.00,,---,0.00,VWS V14.00,2013-11-29 22:38:00,
2013-11-29 16:39:00,69.3,33.9,29.96,NNW,337,0.0,0.0,27,0.00,,---,0.00,VWS V14.00,2013-11-29 22:39:00,
2013-11-29 16:40:00,69.3,33.9,29.96,NNW,337,0.0,0.0,27,0.00,,---,0.00,VWS V14.00,2013-11-29 22:40:00,
2013-11-29 16:41:00,69.3,33.9,29.96,NNW,337,0.0,0.0,27,0.00,,---,0.00,VWS V14.00,2013-11-29 22:41:00,
2013-11-29 16:42:00,69.3,33.9,29.96,NNW,337,0.0,0.0,27,0.00,,---,0.00,VWS V14.00,2013-11-29 22:42:00,
2013-11-29 16:43:00,69.3,33.9,29.96,NNW,337,0.0,0.0,27,0.00,,---,0.00,VWS V14.00,2013-11-29 22:43:00,
2013-11-29 16:44:00,69.3,33.9,29.96,NNW,337,0.0,0.0,27,0.00,,---,0.00,VWS V14.00,2013-11-29 22:44:00,
2013-11-29 16:45:00,69.3,33.9,29.97,NNW,337,0.0,0.0,27,0.00,,---,0.00,VWS V14.00,2013-11-29 22:45:00,
2013-11-29 16:46:00,69.1,33.7,29.97,NNW,337,0.0,0.0,27,0.00,,---,0.00,VWS V14.00,2013-11-29 22:46:00,
2013-11-29 16:47:00,69.1,33.7,29.97,NNW,339,0.0,0.0,27,0.00,,---,0.00,VWS V14.00,2013-11-29 22:47:00,
2013-11-29 16:48:00,69.1,33.7,29.97,NNW,339,0.0,0.0,27,0.00,,---,0.00,VWS V14.00,2013-11-29 22:48:00,
2013-11-29 16:49:00,69.1,33.7,29.97,NNW,339,0.0,0.0,27,0.00,,---,0.00,VWS V14.00,2013-11-29 22:49:00,
2013-11-29 16:50:00,69.1,33.7,29.97,NNW,339,0.0,0.0,27,0.00,,---,0.00,VWS V14.00,2013-11-29 22:50:00,
2013-11-29 16:51:00,68.9,33.6,29.97,NNW,339,0.0,0.0,27,0.00,,---,0.00,VWS V14.00,2013-11-29 22:51:00,
2013-11-29 16:52:00,69.1,33.7,29.97,NNW,339,0.0,0.0,27,0.00,,---,0.00,VWS V14.00,2013-11-29 22:52:00,
2013-11-29 16:53:00,69.1,33.7,29.97,NNW,339,0.0,0.0,27,0.00,,---,0.00,VWS V14.00,2013-11-29 22:53:00,
2013-11-29 16:54:00,69.1,33.7,29.97,NNW,339,0.0,0.0,27,0.00,,---,0.00,VWS V14.00,2013-11-29 22:54:00,
2013-11-29 16:55:00,69.1,33.7,29.97,NNW,337,0.0,0.0,27,0.00,,---,0.00,VWS V14.00,2013-11-29 22:55:00,
2013-11-29 16:56:00,69.1,33.7,29.97,NNW,337,0.0,0.0,27,0.00,,---,0.00,VWS V14.00,2013-11-29 22:56:00,
2013-11-29 16:57:00,69.1,33.7,29.97,NNW,337,0.0,0.0,27,0.00,,---,0.00,VWS V14.00,2013-11-29 22:57:00,
2013-11-29 16:58:00,68.9,33.6,29.97,NNW,337,0.0,0.0,27,0.00,,---,0.00,VWS V14.00,2013-11-29 22:58:00,
2013-11-29 16:59:00,68.9,33.6,29.97,NNW,337,0.0,0.0,27,0.00,,---,0.00,VWS V14.00,2013-11-29 22:59:00,
2013-11-29 17:00:00,68.9,33.6,29.97,NNW,336,0.0,0.0,27,0.00,,---,0.00,VWS V14.00,2013-11-29 23:00:00,
2013-11-29 17:01:00,68.8,33.5,29.97,NNW,336,0.0,0.0,27,0.00,,---,0.00,VWS V14.00,2013-11-29 23:01:00,
2013-11-29 17:02:00,68.8,33.5,29.97,NNW,336,0.0,0.0,27,0.00,,---,0.00,VWS V14.00,2013-11-29 23:02:00,
2013-11-29 17:03:00,68.6,33.3,29.97,NNW,336,0.0,0.0,27,0.00,,---,0.00,VWS V14.00,2013-11-29 23:03:00,
2013-11-29 17:04:00,68.6,34.2,29.97,NNW,336,0.0,0.0,28,0.00,,---,0.00,VWS V14.00,2013-11-29 23:04:00,
2013-11-29 17:05:00,68.4,34.0,29.97,NNW,336,0.0,0.0,28,0.00,,---,0.00,VWS V14.00,2013-11-29 23:05:00,
2013-11-29 17:06:00,68.4,34.0,29.97,NNW,336,0.0,0.0,28,0.00,,---,0.00,VWS V14.00,2013-11-29 23:06:00,
2013-11-29 17:07:00,68.4,34.0,29.97,NNW,336,0.0,0.0,28,0.00,,---,0.00,VWS V14.00,2013-11-29 23:07:00,
2013-11-29 17:08:00,68.3,34.0,29.97,NNW,336,0.0,0.0,28,0.00,,---,0.00,VWS V14.00,2013-11-29 23:08:00,
2013-11-29 17:09:00,68.3,34.0,29.97,NNW,336,0.0,0.0,28,0.00,,---,0.00,VWS V14.00,2013-11-29 23:09:00,
2013-11-29 17:10:00,68.3,34.0,29.97,NNW,336,0.0,0.0,28,0.00,,---,0.00,VWS V14.00,2013-11-29 23:10:00,
2013-11-29 17:11:00,68.3,34.0,29.97,NNW,336,0.0,0.0,28,0.00,,---,0.00,VWS V14.00,2013-11-29 23:11:00,
2013-11-29 17:12:00,68.3,33.1,29.97,NNW,336,0.0,0.0,27,0.00,,---,0.00,VWS V14.00,2013-11-29 23:12:00,
2013-11-29 17:13:00,68.3,33.1,29.97,NNW,336,0.0,0.0,27,0.00,,---,0.00,VWS V14.00,2013-11-29 23:13:00,
2013-11-29 17:14:00,68.1,33.8,29.97,NNW,337,0.0,0.0,28,0.00,,---,0.00,VWS V14.00,2013-11-29 23:14:00,
2013-11-29 17:15:00,67.8,33.5,30.00,NNW,336,0.0,0.0,28,0.00,,---,0.00,VWS V14.00,2013-11-29 23:15:00,
2013-11-29 17:16:00,67.8,33.5,30.00,NNW,337,0.0,0.0,28,0.00,,---,0.00,VWS V14.00,2013-11-29 23:16:00,
2013-11-29 17:17:00,67.3,34.8,30.00,NNW,342,0.0,0.0,30,0.00,,---,0.00,VWS V14.00,2013-11-29 23:17:00,
2013-11-29 17:18:00,67.1,34.7,30.00,ENE,69,0.0,0.0,30,0.00,,---,0.00,VWS V14.00,2013-11-29 23:18:00,
2013-11-29 17:19:00,66.9,34.5,30.00,ENE,69,0.0,0.0,30,0.00,,---,0.00,VWS V14.00,2013-11-29 23:19:00,
2013-11-29 17:20:00,66.4,34.0,30.00,East,97,0.0,0.0,30,0.00,,---,0.00,VWS V14.00,2013-11-29 23:20:00,
2013-11-29 17:21:00,66.4,34.9,30.00,East,96,0.0,0.0,31,0.00,,---,0.00,VWS V14.00,2013-11-29 23:21:00,
2013-11-29 17:22:00,66.3,34.8,30.00,East,97,0.0,0.0,31,0.00,,---,0.00,VWS V14.00,2013-11-29 23:22:00,
2013-11-29 17:23:00,66.1,34.6,30.00,East,97,0.0,0.0,31,0.00,,---,0.00,VWS V14.00,2013-11-29 23:23:00,
2013-11-29 17:24:00,66.0,33.7,30.00,East,97,0.0,0.0,30,0.00,,---,0.00,VWS V14.00,2013-11-29 23:24:00,
2013-11-29 17:25:00,66.0,33.7,30.00,East,97,0.0,0.0,30,0.00,,---,0.00,VWS V14.00,2013-11-29 23:25:00,
2013-11-29 17:26:00,65.5,34.9,30.00,ESE,104,0.0,0.0,32,0.00,,---,0.00,VWS V14.00,2013-11-29 23:26:00,
2013-11-29 17:27:00,65.5,34.9,30.00,ESE,102,0.0,0.0,32,0.00,,---,0.00,VWS V14.00,2013-11-29 23:27:00,
2013-11-29 17:28:00,65.3,34.7,30.00,East,90,0.0,0.0,32,0.00,,---,0.00,VWS V14.00,2013-11-29 23:28:00,
2013-11-29 17:29:00,65.2,34.6,30.00,East,85,0.0,0.0,32,0.00,,---,0.00,VWS V14.00,2013-11-29 23:29:00,
2013-11-29 17:30:00,65.2,34.6,30.03,East,85,0.0,0.0,32,0.00,,---,0.00,VWS V14.00,2013-11-29 23:30:00,
2013-11-29 17:31:00,65.0,34.5,30.03,East,85,0.0,0.0,32,0.00,,---,0.00,VWS V14.00,2013-11-29 23:31:00,
2013-11-29 17:32:00,65.0,34.5,30.03,East,85,0.0,0.0,32,0.00,,---,0.00,VWS V14.00,2013-11-29 23:32:00,
2013-11-29 17:33:00,64.8,34.3,30.03,East,85,0.0,0.0,32,0.00,,---,0.00,VWS V14.00,2013-11-29 23:33:00,
2013-11-29 17:34:00,64.7,34.2,30.03,East,85,0.0,0.0,32,0.00,,---,0.00,VWS V14.00,2013-11-29 23:34:00,
2013-11-29 17:35:00,64.5,34.0,30.03,East,85,0.0,0.0,32,0.00,,---,0.00,VWS V14.00,2013-11-29 23:35:00,
2013-11-29 17:36:00,64.2,34.5,30.03,East,85,0.0,0.0,33,0.00,,---,0.00,VWS V14.00,2013-11-29 23:36:00,
2013-11-29 17:37:00,64.0,34.3,30.03,East,85,0.0,0.0,33,0.00,,---,0.00,VWS V14.00,2013-11-29 23:37:00,
2013-11-29 17:38:00,63.9,34.3,30.03,East,85,0.0,0.0,33,0.00,,---,0.00,VWS V14.00,2013-11-29 23:38:00,
2013-11-29 17:39:00,63.7,34.1,30.03,East,85,0.0,0.0,33,0.00,,---,0.00,VWS V14.00,2013-11-29 23:39:00,
2013-11-29 17:40:00,63.7,34.1,30.03,East,85,0.0,0.0,33,0.00,,---,0.00,VWS V14.00,2013-11-29 23:40:00,
2013-11-29 17:41:00,63.5,34.7,30.03,East,85,0.0,0.0,34,0.00,,---,0.00,VWS V14.00,2013-11-29 23:41:00,
2013-11-29 17:42:00,63.5,35.4,30.03,East,85,0.0,0.0,35,0.00,,---,0.00,VWS V14.00,2013-11-29 23:42:00,
2013-11-29 17:43:00,63.4,35.3,30.03,East,85,0.0,0.0,35,0.00,,---,0.00,VWS V14.00,2013-11-29 23:43:00,
2013-11-29 17:44:00,63.2,35.1,30.03,East,85,0.0,0.0,35,0.00,,---,0.00,VWS V14.00,2013-11-29 23:44:00,
2013-11-29 17:45:00,62.9,34.8,30.05,East,85,0.0,0.0,35,0.00,,---,0.00,VWS V14.00,2013-11-29 23:45:00,
2013-11-29 17:46:00,62.7,35.4,30.05,East,85,0.0,0.0,36,0.00,,---,0.00,VWS V14.00,2013-11-29 23:46:00,
2013-11-29 17:47:00,62.6,35.3,30.05,East,85,0.0,0.0,36,0.00,,---,0.00,VWS V14.00,2013-11-29 23:47:00,
2013-11-29 17:48:00,62.4,35.1,30.05,East,85,0.0,0.0,36,0.00,,---,0.00,VWS V14.00,2013-11-29 23:48:00,
2013-11-29 17:49:00,62.4,35.1,30.05,East,85,0.0,0.0,36,0.00,,---,0.00,VWS V14.00,2013-11-29 23:49:00,
2013-11-29 17:50:00,62.3,35.7,30.05,East,85,0.0,0.0,37,0.00,,---,0.00,VWS V14.00,2013-11-29 23:50:00,
2013-11-29 17:51:00,62.3,35.7,30.05,East,85,0.0,0.0,37,0.00,,---,0.00,VWS V14.00,2013-11-29 23:51:00,
2013-11-29 17:52:00,62.1,36.2,30.05,East,85,0.0,0.0,38,0.00,,---,0.00,VWS V14.00,2013-11-29 23:52:00,
2013-11-29 17:53:00,62.1,35.5,30.05,East,85,0.0,0.0,37,0.00,,---,0.00,VWS V14.00,2013-11-29 23:53:00,
2013-11-29 17:54:00,62.0,36.1,30.05,East,85,0.0,0.0,38,0.00,,---,0.00,VWS V14.00,2013-11-29 23:54:00,
2013-11-29 17:55:00,61.8,36.0,30.05,East,85,0.0,0.0,38,0.00,,---,0.00,VWS V14.00,2013-11-29 23:55:00,
2013-11-29 17:56:00,61.6,35.8,30.05,East,85,0.0,0.0,38,0.00,,---,0.00,VWS V14.00,2013-11-29 23:56:00,
2013-11-29 17:57:00,61.2,35.4,30.05,East,85,0.0,0.0,38,0.00,,---,0.00,VWS V14.00,2013-11-29 23:57:00,
2013-11-29 17:58:00,60.9,35.1,30.05,East,85,0.0,0.0,38,0.00,,---,0.00,VWS V14.00,2013-11-29 23:58:00,
2013-11-29 17:59:00,60.5,35.4,30.06,East,85,0.0,0.0,39,0.00,,---,0.00,VWS V14.00,2013-11-29 23:59:00,
2013-11-29 18:00:00,60.4,35.3,30.06,East,85,0.0,0.0,39,0.00,,---,0.00,VWS V14.00,2013-11-30 00:00:00,
2013-11-29 18:01:00,60.2,35.2,30.06,East,85,0.0,0.0,39,0.00,,---,0.00,VWS V14.00,2013-11-30 00:01:00,
2013-11-29 18:02:00,60.1,35.7,30.06,East,85,0.0,0.0,40,0.00,,---,0.00,VWS V14.00,2013-11-30 00:02:00,
2013-11-29 18:03:00,59.9,36.2,30.06,East,85,0.0,0.0,41,0.00,,---,0.00,VWS V14.00,2013-11-30 00:03:00,
2013-11-29 18:04:00,59.9,36.2,30.06,East,85,0.0,0.0,41,0.00,,---,0.00,VWS V14.00,2013-11-30 00:04:00,
2013-11-29 18:05:00,59.9,36.2,30.06,East,85,0.0,0.0,41,0.00,,---,0.00,VWS V14.00,2013-11-30 00:05:00,
2013-11-29 18:06:00,59.9,36.2,30.06,East,85,0.0,0.0,41,0.00,,---,0.00,VWS V14.00,2013-11-30 00:06:00,
2013-11-29 18:07:00,59.9,36.2,30.06,East,85,0.0,0.0,41,0.00,,---,0.00,VWS V14.00,2013-11-30 00:07:00,
2013-11-29 18:08:00,59.9,36.2,30.06,East,85,0.0,0.0,41,0.00,,---,0.00,VWS V14.00,2013-11-30 00:08:00,
2013-11-29 18:09:00,59.9,36.2,30.06,East,85,0.0,0.0,41,0.00,,---,0.00,VWS V14.00,2013-11-30 00:09:00,
2013-11-29 18:10:00,59.9,36.2,30.06,East,85,0.0,0.0,41,0.00,,---,0.00,VWS V14.00,2013-11-30 00:10:00,
2013-11-29 18:11:00,59.8,36.1,30.06,East,85,0.0,0.0,41,0.00,,---,0.00,VWS V14.00,2013-11-30 00:11:00,
2013-11-29 18:12:00,59.6,36.5,30.06,East,85,0.0,0.0,42,0.00,,---,0.00,VWS V14.00,2013-11-30 00:12:00,
2013-11-29 18:13:00,59.3,36.2,30.06,East,85,0.0,0.0,42,0.00,,---,0.00,VWS V14.00,2013-11-30 00:13:00,
2013-11-29 18:14:00,59.2,36.1,30.06,East,85,0.0,0.0,42,0.00,,---,0.00,VWS V14.00,2013-11-30 00:14:00,
2013-11-29 18:15:00,59.0,36.0,30.10,East,85,0.0,0.0,42,0.00,,---,0.00,VWS V14.00,2013-11-30 00:15:00,
2013-11-29 18:16:00,58.7,35.7,30.10,East,85,0.0,0.0,42,0.00,,---,0.00,VWS V14.00,2013-11-30 00:16:00,
2013-11-29 18:17:00,58.4,35.4,30.10,East,85,0.0,0.0,42,0.00,,---,0.00,VWS V14.00,2013-11-30 00:17:00,
2013-11-29 18:18:00,58.1,35.2,30.10,East,85,0.0,0.0,42,0.00,,---,0.00,VWS V14.00,2013-11-30 00:18:00,
2013-11-29 18:19:00,57.8,35.5,30.10,East,85,0.0,0.0,43,0.00,,---,0.00,VWS V14.00,2013-11-30 00:19:00,
2013-11-29 18:20:00,57.5,35.2,30.10,East,85,0.0,0.0,43,0.00,,---,0.00,VWS V14.00,2013-11-30 00:20:00,
2013-11-29 18:21:00,57.0,35.3,30.10,East,85,0.0,0.0,44,0.00,,---,0.00,VWS V14.00,2013-11-30 00:21:00,
2013-11-29 18:22:00,56.7,35.0,30.10,East,85,0.0,0.0,44,0.00,,---,0.00,VWS V14.00,2013-11-30 00:22:00,
2013-11-29 18:23:00,56.3,35.2,30.10,East,85,0.0,0.0,45,0.00,,---,0.00,VWS V14.00,2013-11-30 00:23:00,
2013-11-29 18:24:00,56.0,35.0,30.10,East,85,0.0,0.0,45,0.00,,---,0.00,VWS V14.00,2013-11-30 00:24:00,
2013-11-29 18:25:00,55.9,34.9,30.10,East,85,0.0,0.0,45,0.00,,---,0.00,VWS V14.00,2013-11-30 00:25:00,
2013-11-29 18:26:00,55.9,35.4,30.10,East,85,0.0,0.0,46,0.00,,---,0.00,VWS V14.00,2013-11-30 00:26:00,
2013-11-29 18:27:00,55.7,35.3,30.10,East,85,0.0,0.0,46,0.00,,---,0.00,VWS V14.00,2013-11-30 00:27:00,
2013-11-29 18:28:00,55.7,35.3,30.10,East,85,0.0,0.0,46,0.00,,---,0.00,VWS V14.00,2013-11-30 00:28:00,
2013-11-29 18:29:00,55.6,35.2,30.10,East,85,0.0,0.0,46,0.00,,---,0.00,VWS V14.00,2013-11-30 00:29:00,
2013-11-29 18:30:00,55.4,35.5,30.12,East,85,0.0,0.0,47,0.00,,---,0.00,VWS V14.00,2013-11-30 00:30:00,
2013-11-29 18:31:00,55.1,35.8,30.12,East,85,0.0,0.0,48,0.00,,---,0.00,VWS V14.00,2013-11-30 00:31:00,
2013-11-29 18:32:00,55.0,35.7,30.12,East,85,0.0,0.0,48,0.00,,---,0.00,VWS V14.00,2013-11-30 00:32:00,
2013-11-29 18:33:00,54.7,35.4,30.12,East,85,0.0,0.0,48,0.00,,---,0.00,VWS V14.00,2013-11-30 00:33:00,
2013-11-29 18:34:00,54.5,35.2,30.12,East,85,0.0,0.0,48,0.00,,---,0.00,VWS V14.00,2013-11-30 00:34:00,
2013-11-29 18:35:00,54.4,35.7,30.12,East,85,0.0,0.0,49,0.00,,---,0.00,VWS V14.00,2013-11-30 00:35:00,
2013-11-29 18:36:00,54.2,35.5,30.12,East,85,0.0,0.0,49,0.00,,---,0.00,VWS V14.00,2013-11-30 00:36:00,
2013-11-29 18:37:00,54.1,35.9,30.12,East,85,0.0,0.0,50,0.00,,---,0.00,VWS V14.00,2013-11-30 00:37:00,
2013-11-29 18:38:00,54.1,35.9,30.12,East,85,0.0,0.0,50,0.00,,---,0.00,VWS V14.00,2013-11-30 00:38:00,
2013-11-29 18:39:00,53.8,35.6,30.12,East,85,0.0,0.0,50,0.00,,---,0.00,VWS V14.00,2013-11-30 00:39:00,
2013-11-29 18:40:00,53.6,35.4,30.12,East,85,0.0,0.0,50,0.00,,---,0.00,VWS V14.00,2013-11-30 00:40:00,
2013-11-29 18:41:00,53.5,35.8,30.12,East,85,0.0,0.0,51,0.00,,---,0.00,VWS V14.00,2013-11-30 00:41:00,
2013-11-29 18:42:00,53.3,35.2,30.12,East,85,0.0,0.0,50,0.00,,---,0.00,VWS V14.00,2013-11-30 00:42:00,
2013-11-29 18:43:00,53.2,35.1,30.12,East,85,0.0,0.0,50,0.00,,---,0.00,VWS V14.00,2013-11-30 00:43:00,
2013-11-29 18:44:00,53.2,36.0,30.12,East,85,0.0,0.0,52,0.00,,---,0.00,VWS V14.00,2013-11-30 00:44:00,
2013-11-29 18:45:00,53.1,36.0,30.14,East,85,0.0,0.0,52,0.00,,---,0.00,VWS V14.00,2013-11-30 00:45:00,
2013-11-29 18:46:00,52.9,35.8,30.14,East,85,0.0,0.0,52,0.00,,---,0.00,VWS V14.00,2013-11-30 00:46:00,
2013-11-29 18:47:00,52.8,36.2,30.14,East,85,0.0,0.0,53,0.00,,---,0.00,VWS V14.00,2013-11-30 00:47:00,
2013-11-29 18:48:00,52.6,36.0,30.14,East,85,0.0,0.0,53,0.00,,---,0.00,VWS V14.00,2013-11-30 00:48:00,
2013-11-29 18:49:00,52.5,35.4,30.14,East,85,0.0,0.0,52,0.00,,---,0.00,VWS V14.00,2013-11-30 00:49:00,
2013-11-29 18:50:00,52.3,35.2,30.14,East,85,0.0,0.0,52,0.00,,---,0.00,VWS V14.00,2013-11-30 00:50:00,
2013-11-29 18:51:00,52.3,36.2,30.14,East,85,0.0,0.0,54,0.00,,---,0.00,VWS V14.00,2013-11-30 00:51:00,
2013-11-29 18:52:00,52.3,36.2,30.14,East,85,0.0,0.0,54,0.00,,---,0.00,VWS V14.00,2013-11-30 00:52:00,
2013-11-29 18:53:00,52.2,36.1,30.14,East,85,0.0,0.0,54,0.00,,---,0.00,VWS V14.00,2013-11-30 00:53:00,
2013-11-29 18:54:00,52.0,35.9,30.14,East,85,0.0,0.0,54,0.00,,---,0.00,VWS V14.00,2013-11-30 00:54:00,
2013-11-29 18:55:00,51.9,35.8,30.14,East,85,0.0,0.0,54,0.00,,---,0.00,VWS V14.00,2013-11-30 00:55:00,
2013-11-29 18:56:00,51.9,35.8,30.14,East,85,0.0,0.0,54,0.00,,---,0.00,VWS V14.00,2013-11-30 00:56:00,
2013-11-29 18:57:00,51.7,35.6,30.14,East,85,0.0,0.0,54,0.00,,---,0.00,VWS V14.00,2013-11-30 00:57:00,
2013-11-29 18:58:00,51.7,35.6,30.14,East,85,0.0,0.0,54,0.00,,---,0.00,VWS V14.00,2013-11-30 00:58:00,
2013-11-29 18:59:00,51.6,35.0,30.14,East,85,0.0,0.0,53,0.00,,---,0.00,VWS V14.00,2013-11-30 00:59:00,
2013-11-29 19:00:00,51.4,34.9,30.15,East,85,0.0,0.0,53,0.00,,---,0.00,VWS V14.00,2013-11-30 01:00:00,
2013-11-29 19:01:00,51.4,34.9,30.15,East,85,0.0,0.0,53,0.00,,---,0.00,VWS V14.00,2013-11-30 01:01:00,
2013-11-29 19:02:00,51.3,34.8,30.15,East,85,0.0,0.0,53,0.00,,---,0.00,VWS V14.00,2013-11-30 01:02:00,
2013-11-29 19:03:00,51.3,35.2,30.15,East,85,0.0,0.0,54,0.00,,---,0.00,VWS V14.00,2013-11-30 01:03:00,
2013-11-29 19:04:00,51.1,35.0,30.15,East,85,0.0,0.0,54,0.00,,---,0.00,VWS V14.00,2013-11-30 01:04:00,
2013-11-29 19:05:00,51.1,36.0,30.15,East,85,0.0,0.0,56,0.00,,---,0.00,VWS V14.00,2013-11-30 01:05:00,
2013-11-29 19:06:00,51.3,36.6,30.15,East,85,0.0,0.0,57,0.00,,---,0.00,VWS V14.00,2013-11-30 01:06:00,
2013-11-29 19:07:00,51.3,36.6,30.15,East,85,0.0,0.0,57,0.00,,---,0.00,VWS V14.00,2013-11-30 01:07:00,
2013-11-29 19:08:00,51.4,36.7,30.15,East,85,0.0,0.0,57,0.00,,---,0.00,VWS V14.00,2013-11-30 01:08:00,
2013-11-29 19:09:00,51.4,36.2,30.15,East,85,0.0,0.0,56,0.00,,---,0.00,VWS V14.00,2013-11-30 01:09:00,
2013-11-29 19:10:00,51.3,36.2,30.15,East,85,0.0,0.0,56,0.00,,---,0.00,VWS V14.00,2013-11-30 01:10:00,
2013-11-29 19:11:00,51.3,36.2,30.15,East,85,0.0,0.0,56,0.00,,---,0.00,VWS V14.00,2013-11-30 01:11:00,
2013-11-29 19:12:00,51.3,36.6,30.15,East,85,0.0,0.0,57,0.00,,---,0.00,VWS V14.00,2013-11-30 01:12:00,
2013-11-29 19:13:00,51.1,36.4,30.15,East,85,0.0,0.0,57,0.00,,---,0.00,VWS V14.00,2013-11-30 01:13:00,
2013-11-29 19:14:00,51.1,36.4,30.15,East,85,0.0,0.0,57,0.00,,---,0.00,VWS V14.00,2013-11-30 01:14:00,
2013-11-29 19:15:00,51.1,36.4,30.18,East,85,0.0,0.0,57,0.00,,---,0.00,VWS V14.00,2013-11-30 01:15:00,
2013-11-29 19:16:00,51.0,35.9,30.18,East,85,0.0,0.0,56,0.00,,---,0.00,VWS V14.00,2013-11-30 01:16:00,
2013-11-29 19:17:00,50.8,36.1,30.18,East,85,0.0,0.0,57,0.00,,---,0.00,VWS V14.00,2013-11-30 01:17:00,
2013-11-29 19:18:00,50.7,36.0,30.18,East,85,0.0,0.0,57,0.00,,---,0.00,VWS V14.00,2013-11-30 01:18:00,
2013-11-29 19:19:00,50.5,35.8,30.18,East,85,0.0,0.0,57,0.00,,---,0.00,VWS V14.00,2013-11-30 01:19:00,
2013-11-29 19:20:00,50.4,36.2,30.18,East,85,0.0,0.0,58,0.00,,---,0.00,VWS V14.00,2013-11-30 01:20:00,
2013-11-29 19:21:00,50.2,36.4,30.18,East,85,0.0,0.0,59,0.00,,---,0.00,VWS V14.00,2013-11-30 01:21:00,
2013-11-29 19:22:00,50.1,35.9,30.18,East,85,0.0,0.0,58,0.00,,---,0.00,VWS V14.00,2013-11-30 01:22:00,
2013-11-29 19:23:00,50.1,36.3,30.18,East,85,0.0,0.0,59,0.00,,---,0.00,VWS V14.00,2013-11-30 01:23:00,
2013-11-29 19:24:00,50.1,36.8,30.18,East,85,0.0,0.0,60,0.00,,---,0.00,VWS V14.00,2013-11-30 01:24:00,
2013-11-29 19:25:00,49.8,36.5,30.18,East,85,0.0,0.0,60,0.00,,---,0.00,VWS V14.00,2013-11-30 01:25:00,
2013-11-29 19:26:00,49.4,35.7,30.18,East,85,0.0,0.0,59,0.00,,---,0.00,VWS V14.00,2013-11-30 01:26:00,
2013-11-29 19:27:00,49.1,35.4,30.18,East,85,0.0,0.0,59,0.00,,---,0.00,VWS V14.00,2013-11-30 01:27:00,
2013-11-29 19:28:00,48.8,35.1,30.18,East,85,0.0,0.0,59,0.00,,---,0.00,VWS V14.00,2013-11-30 01:28:00,
2013-11-29 19:29:00,48.6,34.9,30.18,East,85,0.0,0.0,59,0.00,,---,0.00,VWS V14.00,2013-11-30 01:29:00,
2013-11-29 19:30:00,48.6,34.9,30.19,East,85,0.0,0.0,59,0.00,,---,0.00,VWS V14.00,2013-11-30 01:30:00,
2013-11-29 19:31:00,48.5,34.8,30.19,East,85,0.0,0.0,59,0.00,,---,0.00,VWS V14.00,2013-11-30 01:31:00,
2013-11-29 19:32:00,48.2,34.6,30.19,East,85,0.0,0.0,59,0.00,,---,0.00,VWS V14.00,2013-11-30 01:32:00,
2013-11-29 19:33:00,48.0,34.8,30.19,East,85,0.0,0.0,60,0.00,,---,0.00,VWS V14.00,2013-11-30 01:33:00,
2013-11-29 19:34:00,47.7,34.5,30.19,East,85,0.0,0.0,60,0.00,,---,0.00,VWS V14.00,2013-11-30 01:34:00,
2013-11-29 19:35:00,47.7,35.3,30.19,East,85,0.0,0.0,62,0.00,,---,0.00,VWS V14.00,2013-11-30 01:35:00,
2013-11-29 19:36:00,47.7,35.3,30.19,East,85,0.0,0.0,62,0.00,,---,0.00,VWS V14.00,2013-11-30 01:36:00,
2013-11-29 19:37:00,47.7,35.3,30.19,East,85,0.0,0.0,62,0.00,,---,0.00,VWS V14.00,2013-11-30 01:37:00,
2013-11-29 19:38:00,47.7,34.9,30.19,East,85,0.0,0.0,61,0.00,,---,0.00,VWS V14.00,2013-11-30 01:38:00,
2013-11-29 19:39:00,47.7,34.9,30.19,East,85,0.0,0.0,61,0.00,,---,0.00,VWS V14.00,2013-11-30 01:39:00,
2013-11-29 19:40:00,47.7,34.9,30.19,East,85,0.0,0.0,61,0.00,,---,0.00,VWS V14.00,2013-11-30 01:40:00,
2013-11-29 19:41:00,47.7,34.9,30.19,East,85,0.0,0.0,61,0.00,,---,0.00,VWS V14.00,2013-11-30 01:41:00,
2013-11-29 19:42:00,47.6,34.8,30.19,East,85,0.0,0.0,61,0.00,,---,0.00,VWS V14.00,2013-11-30 01:42:00,
2013-11-29 19:43:00,47.6,34.8,30.19,East,85,0.0,0.0,61,0.00,,---,0.00,VWS V14.00,2013-11-30 01:43:00,
2013-11-29 19:44:00,47.6,34.8,30.19,East,85,0.0,0.0,61,0.00,,---,0.00,VWS V14.00,2013-11-30 01:44:00,
2013-11-29 19:45:00,47.6,35.2,30.21,East,85,0.0,0.0,62,0.00,,---,0.00,VWS V14.00,2013-11-30 01:45:00,
2013-11-29 19:46:00,47.4,34.6,30.21,East,85,0.0,0.0,61,0.00,,---,0.00,VWS V14.00,2013-11-30 01:46:00,
2013-11-29 19:47:00,47.4,34.6,30.21,East,85,0.0,0.0,61,0.00,,---,0.00,VWS V14.00,2013-11-30 01:47:00,
2013-11-29 19:48:00,47.3,35.0,30.21,East,85,0.0,0.0,62,0.00,,---,0.00,VWS V14.00,2013-11-30 01:48:00,
2013-11-29 19:49:00,47.1,35.2,30.21,East,85,0.0,0.0,63,0.00,,---,0.00,VWS V14.00,2013-11-30 01:49:00,
2013-11-29 19:50:00,47.1,35.2,30.21,East,85,0.0,0.0,63,0.00,,---,0.00,VWS V14.00,2013-11-30 01:50:00,
2013-11-29 19:51:00,47.1,35.2,30.21,East,85,0.0,0.0,63,0.00,,---,0.00,VWS V14.00,2013-11-30 01:51:00,
2013-11-29 19:52:00,47.0,34.7,30.21,East,85,0.0,0.0,62,0.00,,---,0.00,VWS V14.00,2013-11-30 01:52:00,
2013-11-29 19:53:00,47.0,34.7,30.21,East,85,0.0,0.0,62,0.00,,---,0.00,VWS V14.00,2013-11-30 01:53:00,
2013-11-29 19:54:00,47.0,34.7,30.21,East,85,0.0,0.0,62,0.00,,---,0.00,VWS V14.00,2013-11-30 01:54:00,
2013-11-29 19:55:00,47.0,34.7,30.21,East,85,0.0,0.0,62,0.00,,---,0.00,VWS V14.00,2013-11-30 01:55:00,
2013-11-29 19:56:00,46.8,34.5,30.21,East,85,0.0,0.0,62,0.00,,---,0.00,VWS V14.00,2013-11-30 01:56:00,
2013-11-29 19:57:00,46.8,34.5,30.21,East,85,0.0,0.0,62,0.00,,---,0.00,VWS V14.00,2013-11-30 01:57:00,
2013-11-29 19:58:00,46.8,34.5,30.21,East,85,0.0,0.0,62,0.00,,---,0.00,VWS V14.00,2013-11-30 01:58:00,
2013-11-29 19:59:00,46.8,34.5,30.21,East,85,0.0,0.0,62,0.00,,---,0.00,VWS V14.00,2013-11-30 01:59:00,
2013-11-29 20:00:00,46.7,34.4,30.21,East,85,0.0,0.0,62,0.00,,---,0.00,VWS V14.00,2013-11-30 02:00:00,
2013-11-29 20:01:00,46.7,34.4,30.21,East,85,0.0,0.0,62,0.00,,---,0.00,VWS V14.00,2013-11-30 02:01:00,
2013-11-29 20:02:00,46.7,34.4,30.21,East,85,0.0,0.0,62,0.00,,---,0.00,VWS V14.00,2013-11-30 02:02:00,
2013-11-29 20:03:00,46.5,34.2,30.21,East,85,0.0,0.0,62,0.00,,---,0.00,VWS V14.00,2013-11-30 02:03:00,
2013-11-29 20:04:00,46.5,34.6,30.21,East,85,0.0,0.0,63,0.00,,---,0.00,VWS V14.00,2013-11-30 02:04:00,
2013-11-29 20:05:00,46.5,34.6,30.21,East,85,0.0,0.0,63,0.00,,---,0.00,VWS V14.00,2013-11-30 02:05:00,
2013-11-29 20:06:00,46.5,35.0,30.21,East,85,0.0,0.0,64,0.00,,---,0.00,VWS V14.00,2013-11-30 02:06:00,
2013-11-29 20:07:00,46.4,34.9,30.21,East,85,0.0,0.0,64,0.00,,---,0.00,VWS V14.00,2013-11-30 02:07:00,
2013-11-29 20:08:00,46.4,34.9,30.21,East,85,0.0,0.0,64,0.00,,---,0.00,VWS V14.00,2013-11-30 02:08:00,
2013-11-29 20:09:00,46.4,34.9,30.21,East,85,0.0,0.0,64,0.00,,---,0.00,VWS V14.00,2013-11-30 02:09:00,
2013-11-29 20:10:00,46.4,34.5,30.21,East,85,0.0,0.0,63,0.00,,---,0.00,VWS V14.00,2013-11-30 02:10:00,
2013-11-29 20:11:00,46.4,34.5,30.21,East,85,0.0,0.0,63,0.00,,---,0.00,VWS V14.00,2013-11-30 02:11:00,
2013-11-29 20:12:00,46.2,34.3,30.21,East,85,0.0,0.0,63,0.00,,---,0.00,VWS V14.00,2013-11-30 02:12:00,
2013-11-29 20:13:00,46.2,34.3,30.21,East,85,0.0,0.0,63,0.00,,---,0.00,VWS V14.00,2013-11-30 02:13:00,
2013-11-29 20:14:00,46.2,34.3,30.21,East,85,0.0,0.0,63,0.00,,---,0.00,VWS V14.00,2013-11-30 02:14:00,
2013-11-29 20:15:00,46.1,34.2,30.14,East,85,0.0,0.0,63,0.00,,---,0.00,VWS V14.00,2013-11-30 02:15:00,
2013-11-29 20:16:00,46.0,34.1,30.14,East,85,0.0,0.0,63,0.00,,---,0.00,VWS V14.00,2013-11-30 02:16:00,
2013-11-29 20:17:00,46.0,34.1,30.14,East,85,0.0,0.0,63,0.00,,---,0.00,VWS V14.00,2013-11-30 02:17:00,
2013-11-29 20:18:00,46.0,34.1,30.14,East,85,0.0,0.0,63,0.00,,---,0.00,VWS V14.00,2013-11-30 02:18:00,
2013-11-29 20:19:00,45.8,33.9,30.14,East,85,0.0,0.0,63,0.00,,---,0.00,VWS V14.00,2013-11-30 02:19:00,
2013-11-29 20:20:00,45.8,34.3,30.14,East,85,0.0,0.0,64,0.00,,---,0.00,VWS V14.00,2013-11-30 02:20:00,
2013-11-29 20:21:00,45.7,34.2,30.14,East,85,0.0,0.0,64,0.00,,---,0.00,VWS V14.00,2013-11-30 02:21:00,
2013-11-29 20:22:00,45.7,34.2,30.14,East,85,0.0,0.0,64,0.00,,---,0.00,VWS V14.00,2013-11-30 02:22:00,
2013-11-29 20:23:00,45.7,34.2,30.14,East,85,0.0,0.0,64,0.00,,---,0.00,VWS V14.00,2013-11-30 02:23:00,
2013-11-29 20:24:00,45.7,34.2,30.14,East,85,0.0,0.0,64,0.00,,---,0.00,VWS V14.00,2013-11-30 02:24:00,
2013-11-29 20:25:00,45.5,34.0,30.14,East,85,0.0,0.0,64,0.00,,---,0.00,VWS V14.00,2013-11-30 02:25:00,
2013-11-29 20:26:00,45.5,34.0,30.14,East,85,0.0,0.0,64,0.00,,---,0.00,VWS V14.00,2013-11-30 02:26:00,
2013-11-29 20:27:00,45.4,34.0,30.14,East,85,0.0,0.0,64,0.00,,---,0.00,VWS V14.00,2013-11-30 02:27:00,
2013-11-29 20:28:00,45.2,33.8,30.14,East,85,0.0,0.0,64,0.00,,---,0.00,VWS V14.00,2013-11-30 02:28:00,
2013-11-29 20:29:00,45.2,33.4,30.14,East,85,0.0,0.0,63,0.00,,---,0.00,VWS V14.00,2013-11-30 02:29:00,
2013-11-29 20:30:00,45.2,33.4,30.15,East,85,0.0,0.0,63,0.00,,---,0.00,VWS V14.00,2013-11-30 02:30:00,
2013-11-29 20:31:00,45.1,33.7,30.15,East,85,0.0,0.0,64,0.00,,---,0.00,VWS V14.00,2013-11-30 02:31:00,
2013-11-29 20:32:00,45.1,33.7,30.15,East,85,0.0,0.0,64,0.00,,---,0.00,VWS V14.00,2013-11-30 02:32:00,
2013-11-29 20:33:00,45.1,33.7,30.15,East,85,0.0,0.0,64,0.00,,---,0.00,VWS V14.00,2013-11-30 02:33:00,
2013-11-29 20:34:00,44.9,33.5,30.15,East,85,0.0,0.0,64,0.00,,---,0.00,VWS V14.00,2013-11-30 02:34:00,
2013-11-29 20:35:00,44.9,33.5,30.15,East,85,0.0,0.0,64,0.00,,---,0.00,VWS V14.00,2013-11-30 02:35:00,
2013-11-29 20:36:00,44.8,33.4,30.15,East,85,0.0,0.0,64,0.00,,---,0.00,VWS V14.00,2013-11-30 02:36:00,
2013-11-29 20:37:00,44.8,33.8,30.15,East,85,0.0,0.0,65,0.00,,---,0.00,VWS V14.00,2013-11-30 02:37:00,
2013-11-29 20:38:00,44.6,33.6,30.15,East,85,0.0,0.0,65,0.00,,---,0.00,VWS V14.00,2013-11-30 02:38:00,
2013-11-29 20:39:00,44.6,33.6,30.15,East,85,0.0,0.0,65,0.00,,---,0.00,VWS V14.00,2013-11-30 02:39:00,
2013-11-29 20:40:00,44.6,34.0,30.15,East,85,0.0,0.0,66,0.00,,---,0.00,VWS V14.00,2013-11-30 02:40:00,
2013-11-29 20:41:00,44.6,34.0,30.15,East,85,0.0,0.0,66,0.00,,---,0.00,VWS V14.00,2013-11-30 02:41:00,
2013-11-29 20:42:00,44.5,33.9,30.15,East,85,0.0,0.0,66,0.00,,---,0.00,VWS V14.00,2013-11-30 02:42:00,
2013-11-29 20:43:00,44.5,33.9,30.15,East,85,0.0,0.0,66,0.00,,---,0.00,VWS V14.00,2013-11-30 02:43:00,
2013-11-29 20:44:00,44.5,33.9,30.15,East,85,0.0,0.0,66,0.00,,---,0.00,VWS V14.00,2013-11-30 02:44:00,
2013-11-29 20:45:00,44.3,33.3,30.15,East,85,0.0,0.0,65,0.00,,---,0.00,VWS V14.00,2013-11-30 02:45:00,
2013-11-29 20:46:00,44.2,33.2,30.15,East,85,0.0,0.0,65,0.00,,---,0.00,VWS V14.00,2013-11-30 02:46:00,
2013-11-29 20:47:00,44.2,33.2,30.15,East,85,0.0,0.0,65,0.00,,---,0.00,VWS V14.00,2013-11-30 02:47:00,
2013-11-29 20:48:00,44.1,33.1,30.15,East,85,0.0,0.0,65,0.00,,---,0.00,VWS V14.00,2013-11-30 02:48:00,
2013-11-29 20:49:00,44.1,33.1,30.15,East,85,0.0,0.0,65,0.00,,---,0.00,VWS V14.00,2013-11-30 02:49:00,
2013-11-29 20:50:00,44.1,33.1,30.15,East,85,0.0,0.0,65,0.00,,---,0.00,VWS V14.00,2013-11-30 02:50:00,
2013-11-29 20:51:00,43.9,32.9,30.15,East,85,0.0,0.0,65,0.00,,---,0.00,VWS V14.00,2013-11-30 02:51:00,
2013-11-29 20:52:00,43.9,33.3,30.15,East,85,0.0,0.0,66,0.00,,---,0.00,VWS V14.00,2013-11-30 02:52:00,
2013-11-29 20:53:00,43.9,33.7,30.15,East,85,0.0,0.0,67,0.00,,---,0.00,VWS V14.00,2013-11-30 02:53:00,
2013-11-29 20:54:00,43.9,33.7,30.15,East,85,0.0,0.0,67,0.00,,---,0.00,VWS V14.00,2013-11-30 02:54:00,
2013-11-29 20:55:00,43.9,33.7,30.15,East,85,0.0,0.0,67,0.00,,---,0.00,VWS V14.00,2013-11-30 02:55:00,
2013-11-29 20:56:00,43.9,33.7,30.15,East,85,0.0,0.0,67,0.00,,---,0.00,VWS V14.00,2013-11-30 02:56:00,
2013-11-29 20:57:00,43.9,33.7,30.15,East,85,0.0,0.0,67,0.00,,---,0.00,VWS V14.00,2013-11-30 02:57:00,
2013-11-29 20:58:00,43.9,33.3,30.15,East,85,0.0,0.0,66,0.00,,---,0.00,VWS V14.00,2013-11-30 02:58:00,
2013-11-29 20:59:00,43.9,33.7,30.15,East,85,0.0,0.0,67,0.00,,---,0.00,VWS V14.00,2013-11-30 02:59:00,
2013-11-29 21:00:00,43.9,33.7,30.15,East,85,0.0,0.0,67,0.00,,---,0.00,VWS V14.00,2013-11-30 03:00:00,
2013-11-29 21:01:00,43.9,33.3,30.15,East,85,0.0,0.0,66,0.00,,---,0.00,VWS V14.00,2013-11-30 03:01:00,
2013-11-29 21:02:00,43.9,33.3,30.15,East,85,0.0,0.0,66,0.00,,---,0.00,VWS V14.00,2013-11-30 03:02:00,
2013-11-29 21:03:00,43.8,33.2,30.15,East,85,0.0,0.0,66,0.00,,---,0.00,VWS V14.00,2013-11-30 03:03:00,
2013-11-29 21:04:00,43.8,33.2,30.15,East,85,0.0,0.0,66,0.00,,---,0.00,VWS V14.00,2013-11-30 03:04:00,
2013-11-29 21:05:00,43.8,33.6,30.15,East,85,0.0,0.0,67,0.00,,---,0.00,VWS V14.00,2013-11-30 03:05:00,
2013-11-29 21:06:00,43.8,33.6,30.15,East,85,0.0,0.0,67,0.00,,---,0.00,VWS V14.00,2013-11-30 03:06:00,
2013-11-29 21:07:00,43.8,33.6,30.15,East,85,0.0,0.0,67,0.00,,---,0.00,VWS V14.00,2013-11-30 03:07:00,
2013-11-29 21:08:00,43.8,33.6,30.15,East,85,0.0,0.0,67,0.00,,---,0.00,VWS V14.00,2013-11-30 03:08:00,
2013-11-29 21:09:00,43.8,33.6,30.15,East,85,0.0,0.0,67,0.00,,---,0.00,VWS V14.00,2013-11-30 03:09:00,
2013-11-29 21:10:00,43.8,33.9,30.15,East,85,0.0,0.0,68,0.00,,---,0.00,VWS V14.00,2013-11-30 03:10:00,
2013-11-29 21:11:00,43.9,34.0,30.15,East,85,0.0,0.0,68,0.00,,---,0.00,VWS V14.00,2013-11-30 03:11:00,
2013-11-29 21:12:00,43.9,34.0,30.15,East,85,0.0,0.0,68,0.00,,---,0.00,VWS V14.00,2013-11-30 03:12:00,
2013-11-29 21:13:00,44.1,34.2,30.15,East,85,0.0,0.0,68,0.00,,---,0.00,VWS V14.00,2013-11-30 03:13:00,
2013-11-29 21:14:00,44.2,34.3,30.15,East,85,0.0,0.0,68,0.00,,---,0.00,VWS V14.00,2013-11-30 03:14:00,
2013-11-29 21:15:00,44.3,34.4,30.08,East,85,0.0,0.0,68,0.00,,---,0.00,VWS V14.00,2013-11-30 03:15:00,
2013-11-29 21:16:00,44.3,34.4,30.08,East,85,0.0,0.0,68,0.00,,---,0.00,VWS V14.00,2013-11-30 03:16:00,
2013-11-29 21:17:00,44.5,34.6,30.08,East,85,0.0,0.0,68,0.00,,---,0.00,VWS V14.00,2013-11-30 03:17:00,
2013-11-29 21:18:00,44.5,34.2,30.08,East,85,0.0,0.0,67,0.00,,---,0.00,VWS V14.00,2013-11-30 03:18:00,
2013-11-29 21:19:00,44.5,34.2,30.08,East,85,0.0,0.0,67,0.00,,---,0.00,VWS V14.00,2013-11-30 03:19:00,
2013-11-29 21:20:00,44.5,34.2,30.08,East,85,0.0,0.0,67,0.00,,---,0.00,VWS V14.00,2013-11-30 03:20:00,
2013-11-29 21:21:00,44.6,34.0,30.08,East,85,0.0,0.0,66,0.00,,---,0.00,VWS V14.00,2013-11-30 03:21:00,
2013-11-29 21:22:00,44.6,34.0,30.08,East,85,0.0,0.0,66,0.00,,---,0.00,VWS V14.00,2013-11-30 03:22:00,
2013-11-29 21:23:00,44.6,34.0,30.08,East,85,0.0,0.0,66,0.00,,---,0.00,VWS V14.00,2013-11-30 03:23:00,
2013-11-29 21:24:00,44.6,34.0,30.08,East,85,0.0,0.0,66,0.00,,---,0.00,VWS V14.00,2013-11-30 03:24:00,
2013-11-29 21:25:00,44.6,34.0,30.08,East,85,0.0,0.0,66,0.00,,---,0.00,VWS V14.00,2013-11-30 03:25:00,
2013-11-29 21:26:00,44.5,34.2,30.08,East,85,0.0,0.0,67,0.00,,---,0.00,VWS V14.00,2013-11-30 03:26:00,
2013-11-29 21:27:00,44.5,34.2,30.08,East,85,0.0,0.0,67,0.00,,---,0.00,VWS V14.00,2013-11-30 03:27:00,
2013-11-29 21:28:00,44.3,34.0,30.08,East,85,0.0,0.0,67,0.00,,---,0.00,VWS V14.00,2013-11-30 03:28:00,
2013-11-29 21:29:00,44.3,34.0,30.08,East,85,0.0,0.0,67,0.00,,---,0.00,VWS V14.00,2013-11-30 03:29:00,
2013-11-29 21:30:00,44.3,34.0,30.08,East,85,0.0,0.0,67,0.00,,---,0.00,VWS V14.00,2013-11-30 03:30:00,
2013-11-29 21:31:00,44.3,34.0,30.08,East,85,0.0,0.0,67,0.00,,---,0.00,VWS V14.00,2013-11-30 03:31:00,
2013-11-29 21:32:00,44.3,34.0,30.08,East,85,0.0,0.0,67,0.00,,---,0.00,VWS V14.00,2013-11-30 03:32:00,
2013-11-29 21:33:00,44.3,34.0,30.08,East,85,0.0,0.0,67,0.00,,---,0.00,VWS V14.00,2013-11-30 03:33:00,
2013-11-29 21:34:00,44.3,34.0,30.08,East,85,0.0,0.0,67,0.00,,---,0.00,VWS V14.00,2013-11-30 03:34:00,
2013-11-29 21:35:00,44.5,34.2,30.08,East,85,0.0,0.0,67,0.00,,---,0.00,VWS V14.00,2013-11-30 03:35:00,
2013-11-29 21:36:00,44.3,34.0,30.08,East,85,0.0,0.0,67,0.00,,---,0.00,VWS V14.00,2013-11-30 03:36:00,
2013-11-29 21:37:00,44.3,34.0,30.08,East,85,0.0,0.0,67,0.00,,---,0.00,VWS V14.00,2013-11-30 03:37:00,
2013-11-29 21:38:00,44.3,34.0,30.08,East,85,0.0,0.0,67,0.00,,---,0.00,VWS V14.00,2013-11-30 03:38:00,
2013-11-29 21:39:00,44.3,34.0,30.08,East,85,0.0,0.0,67,0.00,,---,0.00,VWS V14.00,2013-11-30 03:39:00,
2013-11-29 21:40:00,44.3,34.0,30.08,East,85,0.0,0.0,67,0.00,,---,0.00,VWS V14.00,2013-11-30 03:40:00,
2013-11-29 21:41:00,44.3,34.0,30.08,East,85,0.0,0.0,67,0.00,,---,0.00,VWS V14.00,2013-11-30 03:41:00,
2013-11-29 21:42:00,44.3,34.0,30.08,East,85,0.0,0.0,67,0.00,,---,0.00,VWS V14.00,2013-11-30 03:42:00,
2013-11-29 21:43:00,44.3,34.0,30.08,East,85,0.0,0.0,67,0.00,,---,0.00,VWS V14.00,2013-11-30 03:43:00,
2013-11-29 21:44:00,44.3,34.0,30.08,East,85,0.0,0.0,67,0.00,,---,0.00,VWS V14.00,2013-11-30 03:44:00,
2013-11-29 21:45:00,44.3,34.0,30.08,East,85,0.0,0.0,67,0.00,,---,0.00,VWS V14.00,2013-11-30 03:45:00,
2013-11-29 21:46:00,44.2,34.0,30.08,East,85,0.0,0.0,67,0.00,,---,0.00,VWS V14.00,2013-11-30 03:46:00,
2013-11-29 21:47:00,44.2,34.0,30.08,East,85,0.0,0.0,67,0.00,,---,0.00,VWS V14.00,2013-11-30 03:47:00,
2013-11-29 21:48:00,44.3,34.0,30.08,East,85,0.0,0.0,67,0.00,,---,0.00,VWS V14.00,2013-11-30 03:48:00,
2013-11-29 21:49:00,44.3,34.0,30.08,East,85,0.0,0.0,67,0.00,,---,0.00,VWS V14.00,2013-11-30 03:49:00,
2013-11-29 21:50:00,44.5,34.2,30.08,East,85,0.0,0.0,67,0.00,,---,0.00,VWS V14.00,2013-11-30 03:50:00,
2013-11-29 21:51:00,44.5,34.2,30.08,East,85,0.0,0.0,67,0.00,,---,0.00,VWS V14.00,2013-11-30 03:51:00,
2013-11-29 21:52:00,44.6,34.0,30.08,East,85,0.0,0.0,66,0.00,,---,0.00,VWS V14.00,2013-11-30 03:52:00,
2013-11-29 21:53:00,44.6,34.0,30.08,East,85,0.0,0.0,66,0.00,,---,0.00,VWS V14.00,2013-11-30 03:53:00,
2013-11-29 21:54:00,44.8,34.2,30.08,East,85,0.0,0.0,66,0.00,,---,0.00,VWS V14.00,2013-11-30 03:54:00,
2013-11-29 21:55:00,44.8,34.2,30.08,East,85,0.0,0.0,66,0.00,,---,0.00,VWS V14.00,2013-11-30 03:55:00,
2013-11-29 21:56:00,44.8,34.2,30.08,East,85,0.0,0.0,66,0.00,,---,0.00,VWS V14.00,2013-11-30 03:56:00,
2013-11-29 21:57:00,44.8,34.2,30.08,East,85,0.0,0.0,66,0.00,,---,0.00,VWS V14.00,2013-11-30 03:57:00,
2013-11-29 21:58:00,44.8,33.8,30.08,East,85,0.0,0.0,65,0.00,,---,0.00,VWS V14.00,2013-11-30 03:58:00,
2013-11-29 21:59:00,44.8,33.8,30.08,East,85,0.0,0.0,65,0.00,,---,0.00,VWS V14.00,2013-11-30 03:59:00,
2013-11-29 22:00:00,44.6,33.6,30.07,East,85,0.0,0.0,65,0.00,,---,0.00,VWS V14.00,2013-11-30 04:00:00,
2013-11-29 22:01:00,44.5,33.5,30.07,East,85,0.0,0.0,65,0.00,,---,0.00,VWS V14.00,2013-11-30 04:01:00,
2013-11-29 22:02:00,44.5,33.9,30.07,East,85,0.0,0.0,66,0.00,,---,0.00,VWS V14.00,2013-11-30 04:02:00,
2013-11-29 22:03:00,44.3,33.7,30.07,East,85,0.0,0.0,66,0.00,,---,0.00,VWS V14.00,2013-11-30 04:03:00,
2013-11-29 22:04:00,44.3,33.7,30.07,East,85,0.0,0.0,66,0.00,,---,0.00,VWS V14.00,2013-11-30 04:04:00,
2013-11-29 22:05:00,44.3,34.0,30.07,East,85,0.0,0.0,67,0.00,,---,0.00,VWS V14.00,2013-11-30 04:05:00,
2013-11-29 22:06:00,44.2,34.0,30.07,East,85,0.0,0.0,67,0.00,,---,0.00,VWS V14.00,2013-11-30 04:06:00,
2013-11-29 22:07:00,44.1,33.9,30.07,East,85,0.0,0.0,67,0.00,,---,0.00,VWS V14.00,2013-11-30 04:07:00,
2013-11-29 22:08:00,44.1,33.9,30.07,East,85,0.0,0.0,67,0.00,,---,0.00,VWS V14.00,2013-11-30 04:08:00,
2013-11-29 22:09:00,43.9,33.7,30.07,East,85,0.0,0.0,67,0.00,,---,0.00,VWS V14.00,2013-11-30 04:09:00,
2013-11-29 22:10:00,43.8,33.6,30.07,East,85,0.0,0.0,67,0.00,,---,0.00,VWS V14.00,2013-11-30 04:10:00,